Data for 11/02/2009

Time Sea-Level Adjusted Pressure Absolute Pressure Temperature Relative Humidity Dew Point Precipitation   
(mb) (inHg) (mb) (inHg) (C) (F) (%) (C) (F) (mm) (in)
00:01 1029 30.39 858 25.34 -2.5 27.6 68 -7.6 18.2 -2.089 -0.082
00:02 1029 30.39 858 25.34 -2.5 27.5 67 -7.7 18.1 -2.168 -0.085
00:03 1029 30.39 858 25.34 -2.6 27.4 67 -7.8 18 -2.185 -0.086
00:04 1029 30.39 858 25.34 -2.5 27.4 68 -7.7 18.1 -2.219 -0.087
00:05 1029 30.39 858 25.34 -2.6 27.3 68 -7.8 18 -2.281 -0.09
00:06 1029 30.39 858 25.34 -2.7 27.1 68 -7.7 18.1 -2.377 -0.094
00:07 1029 30.39 858 25.34 -2.8 26.9 69 -7.8 18 -2.439 -0.096
00:08 1029 30.39 858 25.34 -2.8 26.9 69 -7.8 17.9 -2.461 -0.097
00:09 1029 30.39 858 25.34 -2.8 27.1 68 -7.8 17.9 -2.416 -0.095
00:10 1029 30.39 858 25.34 -2.7 27.2 68 -7.8 17.9 -2.319 -0.091
00:11 1029 30.39 858 25.34 -2.6 27.3 68 -7.8 18 -2.257 -0.089
00:12 1029 30.39 858 25.34 -2.5 27.4 67 -7.8 18 -2.211 -0.087
00:13 1029 30.39 858 25.34 -2.5 27.6 67 -7.8 18 -2.121 -0.084
00:14 1029 30.39 858 25.34 -2.4 27.6 67 -7.8 18 -2.092 -0.082
00:15 1029 30.39 858 25.34 -2.4 27.7 67 -7.8 18 -2.036 -0.08
00:16 1029 30.39 858 25.34 -2.4 27.6 67 -7.7 18.1 -2.03 -0.08
00:17 1029 30.39 858 25.34 -2.4 27.6 67 -7.8 18 -2.07 -0.081
00:18 1029 30.39 858 25.34 -2.3 27.8 66 -7.8 18 -1.996 -0.079
00:19 1029 30.39 858 25.34 -2.3 27.9 66 -7.7 18.1 -1.967 -0.077
00:20 1029 30.39 858 25.34 -2.3 27.8 66 -7.8 18 -1.933 -0.076
00:21 1029 30.39 858 25.34 -2.4 27.8 66 -7.8 18 -1.973 -0.078
00:22 1029 30.39 858 25.34 -2.4 27.6 67 -7.8 17.9 -2.052 -0.081
00:23 1029 30.39 858 25.34 -2.6 27.3 67 -7.9 17.8 -2.222 -0.087
00:24 1029 30.39 858 25.34 -2.9 26.7 69 -7.9 17.7 -2.584 -0.102
00:25 1029 30.39 858 25.34 -3.3 26.1 71 -7.9 17.8 -2.873 -0.113
00:26 1029 30.39 858 25.34 -3.4 25.9 71 -7.8 17.9 -3.037 -0.12
00:27 1029 30.39 858 25.34 -3.5 25.8 71 -8 17.6 -3.133 -0.123
00:28 1029 30.39 858 25.34 -3.8 25.2 73 -8 17.6 -3.439 -0.135
00:29 1029 30.39 858 25.34 -4.1 24.6 75 -8 17.6 -3.79 -0.149
00:30 1029 30.39 858 25.34 -4.4 24 76 -8 17.5 -4.033 -0.159
00:31 1029 30.39 858 25.34 -4.7 23.6 77 -8 17.5 -4.282 -0.169
00:32 1029 30.39 858 25.34 -4.9 23.2 79 -8 17.6 -4.514 -0.178
00:33 1029 30.39 858 25.34 -5.1 22.9 80 -8 17.6 -4.632 -0.182
00:34 1029 30.39 858 25.34 -5.1 22.7 81 -7.9 17.8 -4.711 -0.185
00:35 1029 30.39 858 25.34 -5.2 22.7 81 -7.9 17.8 -4.745 -0.187
00:36 1029 30.39 858 25.34 -5.1 22.8 81 -7.9 17.9 -4.722 -0.186
00:37 1029 30.39 858 25.34 -5.2 22.7 81 -7.9 17.7 -4.727 -0.186
00:38 1029 30.39 858 25.34 -5.2 22.7 82 -7.8 17.9 -4.767 -0.188
00:39 1029 30.39 858 25.34 -5.2 22.6 82 -7.7 18.1 -4.727 -0.186
00:40 1029 30.39 858 25.34 -5 23 81 -7.8 18 -4.619 -0.182
00:41 1029 30.39 858 25.34 -4.9 23.1 81 -7.8 18 -4.527 -0.178
00:42 1029 30.39 858 25.34 -4.9 23.1 81 -7.7 18.2 -4.561 -0.18
00:43 1029 30.39 858 25.34 -5 22.9 82 -7.7 18.2 -4.629 -0.182
00:44 1029 30.39 858 25.34 -5.1 22.8 83 -7.6 18.3 -4.735 -0.186
00:45 1029 30.39 858 25.34 -5.2 22.7 83 -7.6 18.3 -4.746 -0.187
00:46 1029 30.39 858 25.34 -5.2 22.6 84 -7.5 18.4 -4.803 -0.189
00:47 1029 30.39 858 25.34 -5.2 22.6 84 -7.4 18.6 -4.802 -0.189
00:48 1029 30.39 858 25.34 -5.1 22.8 85 -7.3 18.8 -4.722 -0.186
00:49 1029 30.39 858 25.34 -5.1 22.9 85 -7.3 18.9 -4.654 -0.183
00:50 1029 30.39 858 25.34 -5 23.1 84 -7.2 19 -4.557 -0.179
00:51 1029 30.39 858 25.34 -4.9 23.1 84 -7.2 19 -4.495 -0.177
00:52 1029 30.39 858 25.34 -4.9 23.3 84 -7.2 19 -4.416 -0.174
00:53 1029 30.39 858 25.34 -4.8 23.4 84 -7.2 19.1 -4.409 -0.174
00:54 1029 30.39 858 25.34 -4.8 23.4 84 -7.1 19.2 -4.358 -0.172
00:55 1029 30.39 858 25.34 -4.7 23.5 84 -7.1 19.2 -4.353 -0.171
00:56 1029 30.39 858 25.34 -4.7 23.5 84 -7.1 19.2 -4.341 -0.171
00:57 1029 30.39 858 25.34 -4.7 23.5 83 -7.2 19.1 -4.301 -0.169
00:58 1029 30.39 858 25.34 -4.7 23.5 83 -7.1 19.2 -4.278 -0.168
00:59 1029 30.39 858 25.34 -4.7 23.5 83 -7.1 19.2 -4.323 -0.17
01:00 1029 30.39 858 25.34 -4.7 23.5 84 -7.1 19.2 -4.329 -0.17
01:01 1029 30.39 858 25.34 -4.7 23.5 84 -7.1 19.2 -4.312 -0.17
01:02 1029 30.39 858 25.34 -4.7 23.5 84 -7.1 19.3 -4.374 -0.172
01:03 1029 30.39 858 25.34 -4.8 23.4 84 -7.1 19.3 -4.368 -0.172
01:04 1029 30.39 858 25.34 -4.8 23.3 85 -7 19.4 -4.379 -0.172
01:05 1029 30.39 858 25.34 -4.8 23.4 85 -6.9 19.5 -4.385 -0.173
01:06 1029 30.39 858 25.34 -4.8 23.4 85 -7 19.5 -4.345 -0.171
01:07 1029 30.39 858 25.34 -4.7 23.5 84 -6.9 19.5 -4.328 -0.17
01:08 1029 30.39 858 25.34 -4.7 23.6 84 -6.9 19.6 -4.3 -0.169
01:09 1029 30.39 858 25.34 -4.6 23.7 84 -6.9 19.6 -4.232 -0.167
01:10 1029 30.39 858 25.34 -4.6 23.7 84 -6.9 19.6 -4.203 -0.165
01:11 1029 30.39 858 25.34 -4.6 23.7 84 -6.9 19.6 -4.231 -0.167
01:12 1029 30.39 858 25.34 -4.7 23.6 84 -6.9 19.6 -4.282 -0.169
01:13 1029 30.39 858 25.34 -4.7 23.6 85 -6.9 19.6 -4.277 -0.168
01:14 1029 30.39 858 25.34 -4.7 23.6 85 -6.9 19.6 -4.277 -0.168
01:15 1029 30.39 858 25.34 -4.7 23.6 85 -6.9 19.6 -4.26 -0.168
01:16 1029 30.39 858 25.34 -4.7 23.6 85 -6.8 19.7 -4.265 -0.168
01:17 1029 30.39 858 25.34 -4.7 23.5 85 -6.8 19.8 -4.254 -0.167
01:18 1029 30.39 858 25.34 -4.7 23.6 85 -6.8 19.8 -4.254 -0.167
01:19 1029 30.39 858 25.34 -4.7 23.6 85 -6.9 19.6 -4.271 -0.168
01:20 1029 30.39 858 25.34 -4.6 23.8 84 -6.9 19.6 -4.18 -0.165
01:21 1029 30.39 858 25.34 -4.4 24 82 -7 19.3 -4.067 -0.16
01:22 1029 30.39 858 25.34 -4.3 24.2 81 -7.1 19.2 -3.953 -0.156
01:23 1029 30.39 858 25.34 -4.2 24.5 81 -7 19.3 -3.84 -0.151
01:24 1029 30.39 858 25.34 -4.1 24.6 80 -7 19.3 -3.732 -0.147
01:25 1029 30.39 858 25.34 -4 24.8 80 -7 19.4 -3.698 -0.146
01:26 1029 30.39 858 25.34 -4 24.7 80 -7 19.3 -3.698 -0.146
01:27 1029 30.39 858 25.34 -4.1 24.6 81 -7 19.4 -3.772 -0.149
01:28 1029 30.39 858 25.34 -4.2 24.5 81 -7 19.5 -3.778 -0.149
01:29 1029 30.39 858 25.34 -4.1 24.6 81 -6.9 19.5 -3.766 -0.148
01:30 1029 30.39 858 25.34 -4 24.8 80 -6.9 19.5 -3.721 -0.146
01:31 1029 30.39 858 25.34 -4 24.9 80 -6.9 19.5 -3.658 -0.144
01:32 1029 30.39 858 25.34 -3.9 24.9 80 -6.9 19.6 -3.567 -0.14
01:33 1029 30.39 858 25.34 -3.9 25 80 -6.8 19.7 -3.448 -0.136
01:34 1029 30.39 858 25.34 -3.8 25.1 80 -6.8 19.7 -3.447 -0.136
01:35 1029 30.39 858 25.34 -3.8 25.2 80 -6.8 19.7 -3.452 -0.136
01:36 1029 30.39 858 25.34 -3.8 25.2 79 -6.8 19.7 -3.407 -0.134
01:37 1029 30.39 858 25.34 -3.8 25.2 79 -6.9 19.6 -3.373 -0.133
01:38 1029 30.39 858 25.34 -3.6 25.5 78 -7 19.4 -3.276 -0.129
01:39 1029 30.39 858 25.34 -3.5 25.7 77 -6.9 19.5 -3.18 -0.125
01:40 1029 30.39 858 25.34 -3.5 25.7 78 -6.9 19.6 -3.134 -0.123
01:41 1029 30.39 858 25.34 -3.5 25.6 78 -6.9 19.6 -3.128 -0.123
01:42 1029 30.39 858 25.34 -3.6 25.6 78 -6.8 19.7 -3.151 -0.124
01:43 1029 30.39 858 25.34 -3.5 25.7 78 -6.8 19.8 -3.128 -0.123
01:44 1029 30.39 858 25.34 -3.6 25.6 78 -6.8 19.8 -3.218 -0.127
01:45 1029 30.39 858 25.34 -3.6 25.5 79 -6.8 19.8 -3.23 -0.127
01:46 1029 30.39 858 25.34 -3.6 25.5 78 -6.9 19.7 -3.212 -0.126
01:47 1029 30.39 858 25.34 -3.4 25.9 77 -6.8 19.8 -3.076 -0.121
01:48 1029 30.39 858 25.34 -3.4 25.9 78 -6.8 19.8 -3.031 -0.119
01:49 1029 30.39 858 25.34 -3.5 25.7 78 -6.8 19.8 -3.127 -0.123
01:50 1029 30.39 858 25.34 -3.6 25.5 78 -6.8 19.7 -3.212 -0.126
01:51 1029 30.39 858 25.34 -3.7 25.3 79 -6.9 19.6 -3.314 -0.13
01:52 1029 30.39 858 25.34 -3.7 25.3 79 -6.9 19.6 -3.364 -0.132
01:53 1029 30.39 858 25.34 -3.8 25.1 79 -6.9 19.6 -3.415 -0.134
01:54 1029 30.39 858 25.34 -3.9 25 80 -6.9 19.6 -3.472 -0.137
01:55 1029 30.39 858 25.34 -3.9 25 79 -7 19.5 -3.495 -0.138
01:56 1029 30.39 858 25.34 -4 24.9 79 -7 19.4 -3.557 -0.14
01:57 1029 30.39 858 25.34 -4 24.8 79 -7.1 19.2 -3.568 -0.14
01:58 1029 30.39 858 25.34 -4 24.8 79 -7.1 19.2 -3.613 -0.142
01:59 1029 30.39 858 25.34 -4.1 24.7 79 -7.2 19 -3.67 -0.144
02:00 1029 30.39 858 25.34 -4.1 24.7 79 -7.2 19.1 -3.693 -0.145
02:01 1029 30.39 858 25.34 -4.1 24.7 79 -7.1 19.2 -3.676 -0.145
02:02 1029 30.39 858 25.34 -4.1 24.5 80 -7.2 19.1 -3.744 -0.147
02:03 1029 30.39 858 25.34 -4.2 24.4 80 -7.2 19.1 -3.845 -0.151
02:04 1029 30.39 858 25.34 -4.4 24.2 80 -7.3 18.9 -3.913 -0.154
02:05 1029 30.39 858 25.34 -4.5 24 80 -7.4 18.7 -4.083 -0.161
02:06 1029 30.39 858 25.34 -4.7 23.6 81 -7.5 18.6 -4.236 -0.167
02:07 1029 30.39 858 25.34 -4.8 23.3 82 -7.5 18.5 -4.418 -0.174
02:08 1029 30.39 858 25.34 -4.9 23.1 82 -7.5 18.5 -4.497 -0.177
02:09 1029 30.39 858 25.34 -5 23 82 -7.6 18.3 -4.616 -0.182
02:10 1029 30.39 858 25.34 -5.1 22.8 83 -7.6 18.3 -4.712 -0.186
02:11 1029 30.39 858 25.34 -5.1 22.8 83 -7.6 18.3 -4.758 -0.187
02:12 1029 30.39 858 25.34 -5.2 22.7 82 -7.7 18.1 -4.814 -0.19
02:13 1029 30.39 858 25.34 -5.3 22.4 84 -7.7 18.2 -4.888 -0.192
02:14 1029 30.39 858 25.34 -5.4 22.3 84 -7.6 18.3 -4.984 -0.196
02:15 1029 30.39 858 25.34 -5.4 22.2 85 -7.7 18.2 -5.024 -0.198
02:16 1029 30.39 858 25.34 -5.5 22.2 84 -7.7 18.2 -5.018 -0.198
02:17 1029 30.39 858 25.34 -5.4 22.2 85 -7.6 18.3 -5.024 -0.198
02:18 1029 30.39 858 25.34 -5.4 22.3 84 -7.6 18.3 -4.973 -0.196
02:19 1029 30.39 858 25.34 -5.4 22.3 84 -7.7 18.1 -5.012 -0.197
02:20 1029 30.39 858 25.34 -5.4 22.3 84 -7.8 18 -5.012 -0.197
02:21 1029 30.39 858 25.34 -5.4 22.3 84 -7.6 18.3 -5.024 -0.198
02:22 1029 30.39 858 25.34 -5.3 22.4 83 -7.7 18.1 -4.933 -0.194
02:23 1029 30.39 858 25.34 -5.3 22.5 82 -7.8 17.9 -4.893 -0.193
02:24 1029 30.39 858 25.34 -5.3 22.4 82 -8 17.7 -4.973 -0.196
02:25 1029 30.39 858 25.34 -5.5 22.2 82 -8 17.6 -5.069 -0.2
02:26 1029 30.39 858 25.34 -5.5 22.1 83 -7.9 17.8 -5.114 -0.201
02:27 1029 30.39 858 25.34 -5.5 22.1 84 -7.8 17.9 -5.125 -0.202
02:28 1029 30.39 858 25.34 -5.5 22.1 84 -7.7 18.1 -5.056 -0.199
02:29 1029 30.39 858 25.34 -5.5 22.2 84 -7.7 18.1 -5.062 -0.199
02:30 1029 30.39 858 25.34 -5.5 22.1 84 -7.8 17.9 -5.078 -0.2
02:31 1029 30.39 858 25.34 -5.5 22.1 84 -7.9 17.8 -5.095 -0.201
02:32 1029 30.39 858 25.34 -5.5 22.1 83 -7.9 17.7 -5.118 -0.201
02:33 1029 30.39 858 25.34 -5.5 22.1 84 -7.9 17.8 -5.128 -0.202
02:34 1029 30.39 858 25.34 -5.5 22.1 83 -7.9 17.7 -5.094 -0.201
02:35 1029 30.39 858 25.34 -5.5 22.1 83 -7.9 17.8 -5.117 -0.201
02:36 1029 30.39 858 25.34 -5.5 22.1 83 -7.9 17.8 -5.162 -0.203
02:37 1029 30.39 858 25.34 -5.5 22 83 -8 17.7 -5.116 -0.201
02:38 1029 30.39 858 25.34 -5.6 22 83 -8 17.6 -5.167 -0.203
02:39 1029 30.39 858 25.34 -5.6 21.9 83 -8 17.6 -5.212 -0.205
02:40 1029 30.39 858 25.34 -5.6 21.9 83 -8 17.6 -5.241 -0.206
02:41 1029 30.39 858 25.34 -5.6 21.9 83 -8 17.6 -5.246 -0.207
02:42 1029 30.39 858 25.34 -5.6 21.9 83 -8 17.6 -5.274 -0.208
02:43 1029 30.39 858 25.34 -5.7 21.8 83 -8.1 17.5 -5.274 -0.208
02:44 1029 30.39 858 25.34 -5.7 21.7 84 -8 17.6 -5.297 -0.209
02:45 1029 30.39 858 25.34 -5.7 21.8 84 -8 17.7 -5.274 -0.208
02:46 1029 30.39 858 25.34 -5.6 21.9 84 -7.9 17.8 -5.263 -0.207
02:47 1029 30.39 858 25.34 -5.6 21.8 84 -8 17.6 -5.257 -0.207
02:48 1029 30.39 858 25.34 -5.6 21.8 84 -8 17.6 -5.24 -0.206
02:49 1029 30.39 858 25.34 -5.7 21.8 84 -8 17.6 -5.291 -0.208
02:50 1029 30.39 858 25.34 -5.7 21.7 84 -8 17.5 -5.336 -0.21
02:51 1029 30.39 858 25.34 -5.8 21.6 84 -8.2 17.3 -5.404 -0.213
02:52 1029 30.39 858 25.34 -5.9 21.4 84 -8.1 17.4 -5.449 -0.215
02:53 1029 30.39 858 25.34 -5.9 21.4 84 -8.1 17.4 -5.483 -0.216
02:54 1029 30.39 858 25.34 -5.9 21.4 85 -8.1 17.5 -5.477 -0.216
02:55 1029 30.39 858 25.34 -5.8 21.5 85 -8 17.6 -5.455 -0.215
02:56 1029 30.39 858 25.34 -5.8 21.6 84 -8 17.6 -5.364 -0.211
02:57 1029 30.39 858 25.34 -5.7 21.7 84 -8 17.6 -5.307 -0.209
02:58 1029 30.39 858 25.34 -5.6 22 84 -7.9 17.8 -5.222 -0.206
02:59 1029 30.39 858 25.34 -5.4 22.3 84 -7.7 18.1 -4.984 -0.196
03:00 1029 30.39 858 25.34 -5.1 22.7 83 -7.6 18.4 -4.757 -0.187
03:01 1029 30.39 858 25.34 -4.9 23.1 82 -7.5 18.5 -4.57 -0.18
03:02 1029 30.39 858 25.34 -4.9 23.3 81 -7.6 18.4 -4.451 -0.175
03:03 1029 30.39 858 25.34 -4.8 23.4 81 -7.5 18.5 -4.383 -0.173
03:04 1029 30.39 858 25.34 -4.8 23.4 81 -7.6 18.4 -4.378 -0.172
03:05 1029 30.39 858 25.34 -4.8 23.3 81 -7.6 18.3 -4.451 -0.175
03:06 1029 30.39 858 25.34 -4.9 23.2 81 -7.7 18.1 -4.502 -0.177
03:07 1029 30.39 858 25.34 -5 23 81 -7.7 18.1 -4.621 -0.182
03:08 1029 30.39 858 25.34 -5.1 22.7 81 -7.9 17.9 -4.757 -0.187
03:09 1029 30.39 858 25.34 -5.3 22.4 82 -8 17.6 -4.961 -0.195
03:10 1029 30.39 858 25.34 -5.5 22.1 83 -8 17.6 -5.097 -0.201
03:11 1029 30.39 858 25.34 -5.6 21.9 84 -7.9 17.8 -5.182 -0.204
03:12 1029 30.39 858 25.34 -5.7 21.8 84 -7.9 17.7 -5.199 -0.205
03:13 1029 30.39 858 25.34 -5.7 21.8 84 -7.9 17.7 -5.227 -0.206
03:14 1029 30.39 858 25.34 -5.7 21.8 85 -7.9 17.8 -5.227 -0.206
03:15 1029 30.39 858 25.34 -5.6 22 84 -7.8 17.9 -5.165 -0.203
03:16 1029 30.39 858 25.34 -5.5 22.1 84 -7.7 18.1 -5.097 -0.201
03:17 1029 30.39 858 25.34 -5.4 22.3 84 -7.7 18.2 -4.984 -0.196
03:18 1029 30.39 858 25.34 -5.3 22.5 84 -7.6 18.3 -4.882 -0.192
03:19 1029 30.39 858 25.34 -5.1 22.8 83 -7.6 18.4 -4.706 -0.185
03:20 1029 30.39 858 25.34 -5 23 82 -7.6 18.3 -4.593 -0.181
03:21 1029 30.39 858 25.34 -4.9 23.2 81 -7.6 18.3 -4.519 -0.178
03:22 1029 30.39 858 25.34 -4.8 23.4 81 -7.6 18.3 -4.44 -0.175
03:23 1029 30.39 858 25.34 -4.8 23.4 81 -7.6 18.3 -4.377 -0.172
03:24 1029 30.39 858 25.34 -4.7 23.5 80 -7.6 18.3 -4.366 -0.172
03:25 1029 30.39 858 25.34 -4.7 23.6 80 -7.6 18.3 -4.286 -0.169
03:26 1029 30.39 858 25.34 -4.6 23.6 80 -7.5 18.4 -4.28 -0.169
03:27 1029 30.39 858 25.34 -4.7 23.6 80 -7.5 18.4 -4.263 -0.168
03:28 1029 30.39 858 25.34 -4.6 23.6 81 -7.5 18.5 -4.263 -0.168
03:29 1029 30.39 858 25.34 -4.6 23.7 80 -7.5 18.5 -4.233 -0.167
03:30 1029 30.39 858 25.34 -4.7 23.6 80 -7.5 18.4 -4.284 -0.169
03:31 1029 30.39 858 25.34 -4.6 23.6 80 -7.5 18.4 -4.205 -0.166
03:32 1029 30.39 858 25.34 -4.7 23.6 78 -7.9 17.8 -4.278 -0.168
03:33 1029 30.39 858 25.34 -4.9 23.1 79 -8.1 17.4 -4.55 -0.179
03:34 1029 30.39 858 25.34 -5.2 22.7 80 -8.1 17.4 -4.793 -0.189
03:35 1029 30.39 858 25.34 -5.3 22.4 82 -8 17.7 -4.895 -0.193
03:36 1029 30.39 858 25.34 -5.3 22.5 82 -7.9 17.7 -4.85 -0.191
03:37 1029 30.39 858 25.34 -5.3 22.5 81 -8 17.6 -4.855 -0.191
03:38 1029 30.39 858 25.34 -5.3 22.5 81 -8 17.6 -4.866 -0.192
03:39 1029 30.39 858 25.34 -5.3 22.5 81 -8 17.6 -4.9 -0.193
03:40 1029 30.39 858 25.34 -5.3 22.5 81 -8.1 17.4 -4.883 -0.192
03:41 1029 30.39 858 25.34 -5.3 22.4 80 -8.2 17.2 -4.934 -0.194
03:42 1029 30.39 858 25.34 -5.5 22.2 80 -8.3 17 -5.042 -0.199
03:43 1029 30.39 858 25.34 -5.6 22 80 -8.5 16.7 -5.183 -0.204
03:44 1029 30.39 858 25.34 -5.8 21.5 81 -8.6 16.5 -5.54 -0.218
03:45 1029 30.39 858 25.34 -6.1 21.1 83 -8.5 16.6 -5.801 -0.228
03:46 1029 30.39 858 25.34 -6.2 20.9 85 -8.4 16.9 -5.846 -0.23
03:47 1029 30.39 858 25.34 -6.2 20.9 84 -8.4 16.8 -5.778 -0.227
03:48 1029 30.39 858 25.34 -6.1 21 85 -8.3 17 -5.727 -0.225
03:49 1029 30.39 858 25.34 -6.1 21 85 -8.3 17.1 -5.693 -0.224
03:50 1029 30.39 858 25.34 -6.1 21.1 85 -8.2 17.3 -5.653 -0.223
03:51 1029 30.39 858 25.34 -5.9 21.4 85 -8.1 17.4 -5.494 -0.216
03:52 1029 30.39 858 25.34 -5.6 22 84 -7.9 17.7 -5.25 -0.207
03:53 1029 30.39 858 25.34 -5.3 22.5 82 -7.9 17.7 -5.041 -0.198
03:54 1029 30.39 858 25.34 -5.2 22.7 81 -8 17.7 -4.837 -0.19
03:55 1029 30.39 858 25.34 -5.2 22.7 79 -8.2 17.2 -4.797 -0.189
03:56 1029 30.39 858 25.34 -5.3 22.5 79 -8.3 17 -4.927 -0.194
03:57 1029 30.39 858 25.34 -5.4 22.3 80 -8.3 17 -5.029 -0.198
03:58 1029 30.39 858 25.34 -5.5 22.2 81 -8.2 17.2 -5.091 -0.2
03:59 1029 30.39 858 25.34 -5.4 22.2 82 -8.1 17.4 -5.052 -0.199
04:00 1029 30.39 858 25.34 -5.3 22.4 81 -8 17.6 -5.006 -0.197
04:01 1029 30.39 858 25.34 -5.3 22.6 81 -8 17.5 -4.989 -0.196
04:02 1029 30.39 858 25.34 -5.2 22.7 80 -8.1 17.4 -4.938 -0.194
04:03 1029 30.39 858 25.34 -5.2 22.7 80 -8.2 17.3 -4.904 -0.193
04:04 1029 30.39 858 25.34 -5.2 22.7 80 -8.2 17.3 -4.944 -0.195
04:05 1029 30.39 858 25.34 -5.2 22.6 80 -8.2 17.2 -4.955 -0.195
04:06 1029 30.39 858 25.34 -5.2 22.6 80 -8.1 17.4 -4.955 -0.195
04:07 1029 30.39 858 25.34 -5.2 22.7 80 -8.2 17.3 -4.921 -0.194
04:08 1029 30.39 858 25.34 -5.2 22.7 80 -8.1 17.4 -4.955 -0.195
04:09 1029 30.39 858 25.34 -5.2 22.6 80 -8.1 17.4 -4.921 -0.194
04:10 1029 30.39 858 25.34 -5.2 22.6 78 -8.5 16.6 -4.965 -0.195
04:11 1029 30.39 858 25.34 -5.3 22.4 80 -8.3 17.1 -5.13 -0.202
04:12 1029 30.39 858 25.34 -5.5 22.2 81 -8.2 17.2 -5.192 -0.204
04:13 1029 30.39 858 25.34 -5.6 22 83 -8.1 17.4 -5.272 -0.208
04:14 1029 30.39 858 25.34 -5.7 21.8 82 -8.3 17.1 -5.306 -0.209
04:15 1029 30.39 858 25.34 -5.8 21.6 82 -8.4 16.9 -5.424 -0.214
04:16 1029 30.39 858 25.34 -5.8 21.5 83 -8.3 17 -5.446 -0.214
04:17 1029 30.39 858 25.34 -5.8 21.5 82 -8.3 17 -5.469 -0.215
04:18 1029 30.39 858 25.34 -5.8 21.5 82 -8.4 16.9 -5.526 -0.218
04:19 1029 30.39 858 25.34 -5.9 21.4 82 -8.5 16.6 -5.6 -0.22
04:20 1029 30.39 858 25.34 -5.9 21.4 81 -8.6 16.5 -5.651 -0.222
04:21 1029 30.39 858 25.34 -5.9 21.3 81 -8.8 16.2 -5.696 -0.224
04:22 1029 30.39 858 25.34 -6.1 21.1 80 -8.9 15.9 -5.786 -0.228
04:23 1029 30.39 858 25.34 -6.3 20.7 82 -9 15.9 -5.984 -0.236
04:24 1029 30.39 858 25.34 -6.5 20.3 81 -9.2 15.4 -6.12 -0.241
04:25 1029 30.39 858 25.34 -6.7 19.9 81 -9.4 15.1 -6.318 -0.249
04:26 1029 30.39 858 25.34 -7 19.5 82 -9.5 15 -6.505 -0.256
04:27 1029 30.39 858 25.34 -7.2 19.1 84 -9.4 15 -6.669 -0.263
04:28 1029 30.39 858 25.34 -7.1 19.2 86 -9.1 15.6 -6.669 -0.263
04:29 1029 30.39 858 25.34 -6.9 19.5 87 -8.8 16.2 -6.482 -0.255
04:30 1029 30.39 858 25.34 -6.6 20.1 86 -8.6 16.6 -6.187 -0.244
04:31 1029 30.39 858 25.34 -6.3 20.6 84 -8.6 16.5 -5.994 -0.236
04:32 1029 30.39 858 25.34 -6.3 20.7 82 -8.8 16.1 -5.96 -0.235
04:33 1029 30.39 858 25.34 -6.3 20.7 82 -8.8 16.1 -5.965 -0.235
04:34 1029 30.39 858 25.34 -6.3 20.7 81 -9 15.8 -5.988 -0.236
04:35 1029 30.39 858 25.34 -6.3 20.6 83 -8.7 16.3 -6.028 -0.237
04:36 1029 30.39 858 25.34 -6.4 20.4 81 -9.1 15.6 -6.078 -0.239
04:37 1029 30.39 858 25.34 -6.6 20.1 81 -9.4 15.1 -6.282 -0.247
04:38 1029 30.39 858 25.34 -6.8 19.7 84 -9.1 15.6 -6.481 -0.255
04:39 1029 30.39 858 25.34 -6.8 19.8 86 -8.8 16.2 -6.396 -0.252
04:40 1029 30.39 858 25.34 -6.5 20.2 85 -8.7 16.4 -6.191 -0.244
04:41 1029 30.39 858 25.34 -6.3 20.6 84 -8.6 16.6 -6.05 -0.238
04:42 1029 30.39 858 25.34 -6.1 21 83 -8.6 16.6 -5.919 -0.233
04:43 1029 30.39 858 25.34 -6.2 20.9 80 -9 15.8 -5.885 -0.232
04:44 1029 30.39 858 25.34 -6.3 20.6 80 -9.3 15.3 -6.01 -0.237
04:45 1029 30.39 858 25.34 -6.5 20.3 82 -9.1 15.7 -6.123 -0.241
04:46 1029 30.39 858 25.34 -6.5 20.3 83 -8.9 16 -6.174 -0.243
04:47 1029 30.39 858 25.34 -6.6 20.2 82 -9.1 15.6 -6.225 -0.245
04:48 1029 30.39 858 25.34 -6.7 19.9 81 -9.5 15 -6.378 -0.251
04:49 1029 30.39 858 25.34 -7 19.5 82 -9.5 14.9 -6.599 -0.26
04:50 1029 30.39 858 25.34 -7.1 19.3 86 -9.1 15.6 -6.718 -0.264
04:51 1029 30.39 858 25.34 -7 19.4 86 -9 15.8 -6.667 -0.262
04:52 1029 30.39 858 25.34 -6.9 19.6 85 -9 15.8 -6.582 -0.259
04:53 1029 30.39 858 25.34 -6.8 19.8 84 -9.1 15.6 -6.542 -0.258
04:54 1029 30.39 858 25.34 -6.9 19.6 86 -8.9 16 -6.52 -0.257
04:55 1029 30.39 858 25.34 -6.8 19.8 85 -8.9 16.1 -6.446 -0.254
04:56 1029 30.39 858 25.34 -6.6 20.1 84 -8.9 16 -6.23 -0.245
04:57 1029 30.39 858 25.34 -6.5 20.3 83 -8.8 16.1 -6.179 -0.243
04:58 1029 30.39 858 25.34 -6.6 20.1 82 -9.2 15.5 -6.287 -0.248
04:59 1029 30.39 858 25.34 -6.7 19.9 84 -9 15.7 -6.417 -0.253
05:00 1029 30.39 858 25.34 -6.7 19.9 84 -9 15.9 -6.395 -0.252
05:01 1029 30.39 858 25.34 -6.5 20.3 85 -8.7 16.4 -6.219 -0.245
05:02 1029 30.39 858 25.34 -6.3 20.7 84 -8.6 16.6 -5.981 -0.235
05:03 1029 30.39 858 25.34 -6.1 21 82 -8.8 16.2 -5.788 -0.228
05:04 1029 30.39 858 25.34 -6.2 20.9 79 -9.2 15.4 -5.851 -0.23
05:05 1029 30.39 858 25.34 -6.4 20.4 81 -9.2 15.4 -6.072 -0.239
05:06 1029 30.39 858 25.34 -6.6 20.2 82 -9.2 15.4 -6.247 -0.246
05:07 1029 30.39 858 25.34 -6.8 19.7 82 -9.4 15 -6.468 -0.255
05:08 1029 30.39 858 25.34 -7 19.4 84 -9.3 15.3 -6.599 -0.26
05:09 1029 30.39 858 25.34 -7 19.3 87 -8.9 16 -6.655 -0.262
05:10 1029 30.39 858 25.34 -6.8 19.8 85 -8.9 16 -6.463 -0.254
05:11 1029 30.39 858 25.34 -6.6 20.1 85 -8.7 16.4 -6.338 -0.25
05:12 1029 30.39 858 25.34 -6.4 20.5 85 -8.5 16.6 -6.106 -0.24
05:13 1029 30.39 858 25.34 -6.1 21 83 -8.5 16.7 -5.839 -0.23
05:14 1029 30.39 858 25.34 -5.9 21.3 78 -9.1 15.6 -5.709 -0.225
05:15 1029 30.39 858 25.34 -6.1 21.1 80 -9 15.8 -5.867 -0.231
05:16 1029 30.39 858 25.34 -6 21.1 83 -8.5 16.6 -5.828 -0.229
05:17 1029 30.39 858 25.34 -5.9 21.4 80 -8.8 16.2 -5.669 -0.223
05:18 1029 30.39 858 25.34 -6 21.2 79 -9.1 15.6 -5.782 -0.228
05:19 1029 30.39 858 25.34 -6.3 20.7 80 -9.1 15.6 -6.009 -0.237
05:20 1029 30.39 858 25.34 -6.2 20.8 84 -8.5 16.7 -6.009 -0.237
05:21 1029 30.39 858 25.34 -6 21.1 83 -8.5 16.7 -5.805 -0.229
05:22 1029 30.39 858 25.34 -6 21.1 80 -9 15.9 -5.794 -0.228
05:23 1029 30.39 858 25.34 -6.3 20.7 80 -9.1 15.6 -5.964 -0.235
05:24 1029 30.39 858 25.34 -6.5 20.3 81 -9.2 15.4 -6.185 -0.244
05:25 1029 30.39 858 25.34 -6.7 19.9 82 -9.2 15.4 -6.378 -0.251
05:26 1029 30.39 858 25.34 -6.8 19.8 83 -9.1 15.6 -6.429 -0.253
05:27 1029 30.39 858 25.34 -6.8 19.7 84 -9.1 15.7 -6.48 -0.255
05:28 1029 30.39 858 25.34 -6.9 19.5 82 -9.6 14.8 -6.57 -0.259
05:29 1029 30.39 858 25.34 -7.1 19.2 83 -9.5 15 -6.739 -0.265
05:30 1029 30.39 858 25.34 -7.1 19.1 83 -9.5 14.8 -6.785 -0.267
05:31 1029 30.39 858 25.34 -7.2 19.1 84 -9.4 15.1 -6.824 -0.269
05:32 1029 30.39 858 25.34 -7 19.4 85 -9.1 15.6 -6.693 -0.264
05:33 1029 30.39 858 25.34 -6.9 19.6 84 -9.2 15.5 -6.54 -0.257
05:34 1029 30.39 858 25.34 -6.8 19.8 84 -9.1 15.7 -6.506 -0.256
05:35 1029 30.39 858 25.34 -6.9 19.6 83 -9.4 15.1 -6.562 -0.258
05:36 1029 30.39 858 25.34 -7.1 19.3 83 -9.6 14.8 -6.732 -0.265
05:37 1029 30.39 858 25.34 -7.3 18.8 83 -9.7 14.5 -6.947 -0.274
05:38 1029 30.39 858 25.34 -7.4 18.6 86 -9.4 15.1 -7.05 -0.278
05:39 1029 30.39 858 25.34 -7.3 18.9 85 -9.4 15 -6.907 -0.272
05:40 1029 30.39 858 25.34 -7.2 19 83 -9.6 14.6 -6.867 -0.27
05:41 1029 30.39 858 25.34 -7.3 19 83 -9.6 14.7 -6.895 -0.271
05:42 1029 30.39 858 25.34 -7.3 18.8 84 -9.6 14.7 -6.946 -0.273
05:43 1029 30.39 858 25.34 -7.4 18.7 82 -9.9 14.2 -7.03 -0.277
05:44 1029 30.39 858 25.34 -7.5 18.4 84 -9.7 14.5 -7.16 -0.282
05:45 1029 30.39 858 25.34 -7.6 18.3 84 -9.9 14.2 -7.21 -0.284
05:46 1029 30.39 858 25.34 -7.7 18.2 84 -9.9 14.2 -7.27 -0.286
05:47 1029 30.39 858 25.34 -7.8 18 84 -10.1 13.8 -7.42 -0.292
05:48 1029 30.39 858 25.34 -7.9 17.9 85 -9.9 14.1 -7.44 -0.293
05:49 1029 30.39 858 25.34 -7.9 17.8 85 -10 14 -7.52 -0.296
05:50 1029 30.39 858 25.34 -8 17.7 86 -9.9 14.1 -7.56 -0.298
05:51 1029 30.39 858 25.34 -8 17.6 86 -9.9 14.1 -7.56 -0.298
05:52 1029 30.39 858 25.34 -7.9 17.7 85 -10 14 -7.57 -0.298
05:53 1029 30.39 858 25.34 -8 17.6 85 -10.1 13.8 -7.62 -0.3
05:54 1029 30.39 858 25.34 -8 17.5 85 -10.1 13.8 -7.7 -0.303
05:55 1029 30.39 858 25.34 -8.1 17.5 86 -10 13.9 -7.73 -0.304
05:56 1029 30.39 858 25.34 -8 17.6 87 -9.8 14.3 -7.65 -0.301
05:57 1029 30.39 858 25.34 -7.9 17.9 88 -9.5 14.9 -7.46 -0.294
05:58 1029 30.39 858 25.34 -7.6 18.2 88 -9.3 15.2 -7.25 -0.285
05:59 1029 30.39 858 25.34 -7.5 18.6 86 -9.4 15.1 -7.14 -0.281
06:00 1029 30.39 858 25.34 -7.5 18.6 86 -9.5 14.9 -7.15 -0.281
06:01 1029 30.39 858 25.34 -7.3 18.8 89 -8.9 16 -6.985 -0.275
06:02 1029 30.39 858 25.34 -7 19.4 87 -8.9 16 -6.718 -0.264
06:03 1029 30.39 858 25.34 -6.9 19.6 86 -8.9 16 -6.605 -0.26
06:04 1029 30.39 858 25.34 -6.8 19.8 86 -8.7 16.3 -6.48 -0.255
06:05 1029 30.39 858 25.34 -6.8 19.8 86 -8.8 16.1 -6.497 -0.256
06:06 1029 30.39 858 25.34 -6.8 19.7 85 -9 15.8 -6.503 -0.256
06:07 1029 30.39 858 25.34 -6.9 19.5 85 -9.1 15.6 -6.571 -0.259
06:08 1029 30.39 858 25.34 -7 19.3 86 -9 15.8 -6.633 -0.261
06:09 1029 30.39 858 25.34 -6.9 19.5 87 -8.7 16.3 -6.599 -0.26
06:10 1029 30.39 858 25.34 -6.9 19.7 86 -8.8 16.1 -6.57 -0.259
06:11 1029 30.39 858 25.34 -6.8 19.7 85 -9 15.8 -6.586 -0.259
06:12 1029 30.39 858 25.34 -6.9 19.6 82 -9.4 15.1 -6.649 -0.262
06:13 1029 30.39 858 25.34 -7 19.4 81 -9.7 14.5 -6.756 -0.266
06:14 1029 30.39 858 25.34 -7.3 19 81 -10 14 -6.971 -0.274
06:15 1029 30.39 858 25.34 -7.4 18.6 84 -9.6 14.6 -7.11 -0.28
06:16 1029 30.39 859 25.37 -7.4 18.7 85 -9.6 14.8 -7.07 -0.278
06:17 1029 30.39 859 25.37 -7.5 18.6 84 -9.7 14.6 -7.15 -0.281
06:18 1029 30.39 859 25.37 -7.4 18.7 86 -9.4 15.1 -7.08 -0.279
06:19 1029 30.39 858 25.34 -7.4 18.7 84 -9.6 14.6 -7.06 -0.278
06:20 1029 30.39 858 25.34 -7.4 18.7 86 -9.4 15.1 -7.06 -0.278
06:21 1029 30.39 858 25.34 -7.3 19 86 -9.2 15.4 -6.925 -0.273
06:22 1029 30.39 858 25.34 -7.1 19.2 86 -9 15.7 -6.817 -0.268
06:23 1029 30.39 858 25.34 -7 19.4 87 -8.8 16.1 -6.749 -0.266
06:24 1029 30.39 858 25.34 -6.9 19.7 87 -8.6 16.5 -6.618 -0.261
06:25 1029 30.39 858 25.34 -6.8 19.8 87 -8.6 16.4 -6.527 -0.257
06:26 1029 30.39 858 25.34 -6.8 19.8 85 -8.9 16 -6.465 -0.255
06:27 1029 30.39 858 25.34 -6.7 19.9 86 -8.7 16.3 -6.487 -0.255
06:28 1029 30.39 858 25.34 -6.7 20 85 -8.8 16.2 -6.447 -0.254
06:29 1029 30.39 858 25.34 -6.7 20 82 -9.3 15.3 -6.476 -0.255
06:30 1029 30.39 858 25.34 -6.9 19.6 82 -9.5 14.9 -6.634 -0.261
06:31 1029 30.39 858 25.34 -7.1 19.3 84 -9.3 15.3 -6.753 -0.266
06:32 1029 30.39 858 25.34 -7 19.4 86 -9 15.9 -6.736 -0.265
06:33 1029 30.39 858 25.34 -6.9 19.6 85 -9.1 15.7 -6.679 -0.263
06:34 1029 30.39 858 25.34 -6.9 19.5 85 -9 15.8 -6.696 -0.264
06:35 1029 30.39 858 25.34 -6.9 19.7 85 -8.9 15.9 -6.668 -0.263
06:36 1029 30.39 858 25.34 -6.9 19.6 84 -9.2 15.5 -6.668 -0.263
06:37 1029 30.39 858 25.34 -6.9 19.5 86 -8.9 15.9 -6.662 -0.262
06:38 1029 30.39 858 25.34 -6.9 19.7 87 -8.7 16.3 -6.594 -0.26
06:39 1029 30.39 858 25.34 -6.8 19.8 87 -8.5 16.7 -6.452 -0.254
06:40 1029 30.39 858 25.34 -6.6 20.1 87 -8.4 16.9 -6.327 -0.249
06:41 1029 30.39 858 25.34 -6.5 20.3 87 -8.3 17 -6.236 -0.246
06:42 1029 30.39 858 25.34 -6.5 20.3 85 -8.6 16.4 -6.231 -0.245
06:43 1029 30.39 858 25.34 -6.6 20.2 86 -8.6 16.5 -6.31 -0.248
06:44 1029 30.39 858 25.34 -6.6 20.2 85 -8.7 16.3 -6.276 -0.247
06:45 1029 30.39 858 25.34 -6.5 20.3 85 -8.7 16.4 -6.299 -0.248
06:46 1029 30.39 858 25.34 -6.5 20.4 85 -8.6 16.5 -6.27 -0.247
06:47 1029 30.39 858 25.34 -6.5 20.3 82 -9 15.8 -6.236 -0.246
06:48 1029 30.39 858 25.34 -6.6 20.1 83 -9 15.8 -6.327 -0.249
06:49 1029 30.39 858 25.34 -6.6 20.1 84 -9 15.9 -6.332 -0.249
06:50 1029 30.39 858 25.34 -6.7 20 82 -9.3 15.2 -6.423 -0.253
06:51 1029 30.39 858 25.34 -6.9 19.5 82 -9.5 14.8 -6.661 -0.262
06:52 1029 30.39 858 25.34 -7.2 19 81 -9.9 14.2 -6.922 -0.273
06:53 1029 30.39 858 25.34 -7.6 18.4 83 -10 14.1 -7.18 -0.283
06:54 1029 30.39 858 25.34 -7.8 18 84 -10.1 13.9 -7.44 -0.293
06:55 1029 30.39 858 25.34 -8 17.7 85 -10.1 13.9 -7.61 -0.3
06:56 1029 30.39 858 25.34 -8.1 17.4 86 -10 14 -7.72 -0.304
06:57 1029 30.39 858 25.34 -8.2 17.3 87 -9.9 14.2 -7.8 -0.307
06:58 1029 30.39 858 25.34 -8.2 17.3 88 -9.9 14.3 -7.87 -0.31
06:59 1029 30.39 858 25.34 -8.2 17.2 88 -9.9 14.3 -7.84 -0.309
07:00 1029 30.39 858 25.34 -8.2 17.3 88 -9.9 14.3 -7.8 -0.307
07:01 1029 30.39 858 25.34 -8.1 17.4 88 -9.8 14.4 -7.82 -0.308
07:02 1029 30.39 858 25.34 -8 17.6 88 -9.6 14.7 -7.69 -0.303
07:03 1029 30.39 858 25.34 -8 17.6 87 -9.8 14.4 -7.65 -0.301
07:04 1029 30.39 858 25.34 -8 17.5 88 -9.7 14.5 -7.71 -0.304
07:05 1029 30.39 858 25.34 -8 17.6 89 -9.5 14.9 -7.66 -0.302
07:06 1029 30.39 858 25.34 -7.9 17.8 88 -9.5 14.9 -7.51 -0.296
07:07 1029 30.39 858 25.34 -7.8 17.9 88 -9.4 15 -7.5 -0.295
07:08 1029 30.39 858 25.34 -7.8 18 89 -9.3 15.3 -7.4 -0.291
07:09 1029 30.39 858 25.34 -7.7 18.2 88 -9.3 15.3 -7.3 -0.287
07:10 1029 30.39 858 25.34 -7.7 18.2 87 -9.4 15.1 -7.33 -0.289
07:11 1029 30.39 858 25.34 -7.7 18.1 87 -9.5 14.9 -7.39 -0.291
07:12 1029 30.39 858 25.34 -7.8 18 88 -9.4 15.1 -7.43 -0.293
07:13 1029 30.39 858 25.34 -7.7 18.1 88 -9.4 15.1 -7.39 -0.291
07:14 1029 30.39 858 25.34 -7.7 18.2 88 -9.4 15.1 -7.35 -0.289
07:15 1029 30.39 858 25.34 -7.7 18.2 87 -9.4 15 -7.27 -0.286
07:16 1029 30.39 858 25.34 -7.7 18.2 86 -9.6 14.8 -7.32 -0.288
07:17 1029 30.39 858 25.34 -7.7 18.2 86 -9.6 14.8 -7.35 -0.289
07:18 1029 30.39 858 25.34 -7.8 18 86 -9.7 14.6 -7.35 -0.289
07:19 1029 30.39 858 25.34 -7.8 17.9 86 -9.8 14.4 -7.42 -0.292
07:20 1029 30.39 858 25.34 -7.8 17.9 87 -9.6 14.7 -7.45 -0.293
07:21 1029 30.39 858 25.34 -7.8 17.9 88 -9.5 14.8 -7.45 -0.293
07:22 1029 30.39 858 25.34 -7.7 18.1 87 -9.5 14.9 -7.4 -0.291
07:23 1029 30.39 858 25.34 -7.7 18.1 88 -9.4 15 -7.34 -0.289
07:24 1029 30.39 858 25.34 -7.7 18.1 87 -9.5 14.9 -7.32 -0.288
07:25 1029 30.39 858 25.34 -7.8 18 87 -9.6 14.8 -7.39 -0.291
07:26 1029 30.39 858 25.34 -7.9 17.9 87 -9.7 14.6 -7.46 -0.294
07:27 1029 30.39 858 25.34 -7.9 17.8 87 -9.7 14.6 -7.48 -0.294
07:28 1029 30.39 858 25.34 -7.9 17.8 87 -9.7 14.6 -7.49 -0.295
07:29 1029 30.39 858 25.34 -7.9 17.8 87 -9.7 14.6 -7.5 -0.295
07:30 1029 30.39 858 25.34 -7.9 17.9 86 -9.7 14.5 -7.51 -0.296
07:31 1029 30.39 858 25.34 -7.9 17.9 87 -9.6 14.6 -7.48 -0.294
07:32 1029 30.39 858 25.34 -7.8 18 87 -9.5 14.8 -7.45 -0.293
07:33 1029 30.39 858 25.34 -7.7 18.1 87 -9.5 15 -7.35 -0.289
07:34 1029 30.39 859 25.37 -7.6 18.3 87 -9.3 15.2 -7.25 -0.285
07:35 1029 30.39 859 25.37 -7.5 18.6 87 -9.2 15.4 -7.13 -0.281
07:36 1029 30.39 859 25.37 -7.3 18.9 87 -9.1 15.7 -6.939 -0.273
07:37 1029 30.39 859 25.37 -7.1 19.2 87 -8.9 15.9 -6.814 -0.268
07:38 1029 30.39 859 25.37 -6.9 19.6 87 -8.8 16.2 -6.616 -0.26
07:39 1029 30.39 859 25.37 -6.7 19.9 87 -8.6 16.6 -6.383 -0.251
07:40 1029 30.39 859 25.37 -6.5 20.3 86 -8.4 16.8 -6.19 -0.244
07:41 1029 30.39 859 25.37 -6.3 20.7 85 -8.4 16.8 -5.975 -0.235
07:42 1029 30.39 859 25.37 -6.2 20.8 85 -8.4 16.9 -5.867 -0.231
07:43 1029 30.39 859 25.37 -6.2 20.8 84 -8.4 16.8 -5.85 -0.23
07:44 1029 30.39 859 25.37 -6.2 20.9 84 -8.4 16.8 -5.844 -0.23
07:45 1029 30.39 859 25.37 -6.2 20.9 84 -8.4 16.8 -5.844 -0.23
07:46 1030 30.42 859 25.37 -6.2 20.8 84 -8.5 16.8 -5.867 -0.231
07:47 1030 30.42 859 25.37 -6.2 20.8 85 -8.4 16.9 -5.873 -0.231
07:48 1030 30.42 859 25.37 -6.2 20.8 85 -8.3 17 -5.901 -0.232
07:49 1030 30.42 859 25.37 -6.2 20.9 85 -8.2 17.2 -5.884 -0.232
07:50 1030 30.42 859 25.37 -6.1 21 86 -8.1 17.4 -5.805 -0.229
07:51 1030 30.42 859 25.37 -6 21.1 86 -8.1 17.5 -5.714 -0.225
07:52 1030 30.42 859 25.37 -5.9 21.4 86 -7.9 17.8 -5.629 -0.222
07:53 1030 30.42 859 25.37 -5.8 21.6 86 -7.8 18 -5.481 -0.216
07:54 1030 30.42 859 25.37 -5.6 21.9 86 -7.7 18.2 -5.379 -0.212
07:55 1030 30.42 859 25.37 -5.5 22.1 86 -7.5 18.4 -5.266 -0.207
07:56 1030 30.42 859 25.37 -5.3 22.4 85 -7.4 18.6 -5.136 -0.202
07:57 1030 30.42 859 25.37 -5.1 22.7 85 -7.2 19 -4.982 -0.196
07:58 1030 30.42 859 25.37 -5 23.1 85 -7.2 19.1 -4.841 -0.191
07:59 1030 30.42 859 25.37 -4.9 23.2 84 -7.2 19.1 -4.727 -0.186
08:00 1030 30.42 859 25.37 -4.8 23.4 84 -7.1 19.2 -4.699 -0.185
08:01 1030 30.42 859 25.37 -4.7 23.6 83 -7.1 19.2 -4.608 -0.181
08:02 1030 30.42 859 25.37 -4.6 23.8 83 -7 19.4 -4.523 -0.178
08:03 1030 30.42 859 25.37 -4.4 24.1 84 -6.8 19.8 -4.466 -0.176
08:04 1030 30.42 859 25.37 -4.3 24.3 84 -6.7 20 -4.297 -0.169
08:05 1030 30.42 859 25.37 -4.1 24.6 83 -6.5 20.2 -4.212 -0.166
08:06 1030 30.42 859 25.37 -3.9 24.9 83 -6.4 20.5 -4.014 -0.158
08:07 1030 30.42 859 25.37 -3.7 25.3 83 -6.2 20.9 -3.878 -0.153
08:08 1030 30.42 859 25.37 -3.5 25.8 83 -6 21.3 -3.709 -0.146
08:09 1030 30.42 859 25.37 -3.2 26.3 81 -5.9 21.3 -3.55 -0.14
08:10 1030 30.42 859 25.37 -3 26.5 81 -5.8 21.6 -3.511 -0.138
08:11 1030 30.42 859 25.37 -3 26.6 79 -6.1 21.1 -3.477 -0.137
08:12 1030 30.42 859 25.37 -3.1 26.5 79 -6.2 20.9 -3.528 -0.139
08:13 1030 30.42 859 25.37 -3.1 26.4 78 -6.4 20.5 -3.501 -0.138
08:14 1030 30.42 859 25.37 -3.1 26.4 79 -6.2 20.8 -3.456 -0.136
08:15 1030 30.42 859 25.37 -3.1 26.5 80 -6.1 21 -3.354 -0.132
08:16 1030 30.42 859 25.37 -3 26.6 79 -6.1 20.9 -3.225 -0.127
08:17 1030 30.42 859 25.37 -2.9 26.9 78 -6.2 20.8 -3.038 -0.12
08:18 1030 30.42 859 25.37 -2.8 27 77 -6.2 20.9 -2.93 -0.115
08:19 1030 30.42 859 25.37 -2.6 27.3 77 -6.2 20.9 -2.716 -0.107
08:20 1030 30.42 859 25.37 -2.5 27.5 77 -5.9 21.3 -2.552 -0.1
08:21 1030 30.42 859 25.37 -2.4 27.7 77 -5.9 21.3 -2.45 -0.096
08:22 1030 30.42 859 25.37 -2.2 28 77 -5.7 21.8 -2.343 -0.092
08:23 1030 30.42 859 25.37 -2.1 28.3 76 -5.7 21.8 -2.207 -0.087
08:24 1030 30.42 859 25.37 -1.9 28.6 77 -5.4 22.2 -2.06 -0.081
08:25 1030 30.42 859 25.37 -1.7 28.9 75 -5.6 21.9 -1.902 -0.075
08:26 1030 30.42 859 25.37 -1.5 29.2 75 -5.4 22.3 -1.794 -0.071
08:27 1030 30.42 859 25.37 -1.4 29.5 73 -5.6 21.9 -1.783 -0.07
08:28 1030 30.42 859 25.37 -1.3 29.6 75 -5.3 22.5 -1.709 -0.067
08:29 1030 30.42 859 25.37 -1.2 29.8 75 -5.1 22.8 -1.675 -0.066
08:30 1030 30.42 859 25.37 -1.2 29.8 73 -5.5 22 -1.727 -0.068
08:31 1030 30.42 859 25.37 -1.3 29.7 75 -5.2 22.7 -1.717 -0.068
08:32 1030 30.42 859 25.37 -1.2 29.8 74 -5.3 22.5 -1.683 -0.066
08:33 1030 30.42 859 25.37 -1.1 30.1 74 -5.1 22.8 -1.553 -0.061
08:34 1030 30.42 859 25.37 -0.8 30.5 74 -5 23.1 -1.412 -0.056
08:35 1030 30.42 859 25.37 -0.5 31.1 72 -4.9 23.2 -1.265 -0.05
08:36 1030 30.42 859 25.37 -0.2 31.6 71 -4.9 23.1 -1.118 -0.044
08:37 1030 30.42 859 25.37 -0.1 31.9 69 -5.1 22.9 -1.136 -0.045
08:38 1030 30.42 859 25.37 -0.1 31.8 69 -5.1 22.9 -1.192 -0.047
08:39 1030 30.42 859 25.37 -0.3 31.5 71 -4.9 23.1 -1.233 -0.049
08:40 1030 30.42 859 25.37 -0.4 31.2 71 -5 23 -1.263 -0.05
08:41 1030 30.42 859 25.37 -0.5 31.1 72 -4.9 23.2 -1.291 -0.051
08:42 1030 30.42 859 25.37 -0.7 30.8 74 -4.8 23.4 -1.297 -0.051
08:43 1030 30.42 859 25.37 -0.7 30.7 72 -5.1 22.8 -1.23 -0.048
08:44 1030 30.42 859 25.37 -0.7 30.7 75 -4.7 23.5 -1.196 -0.047
08:45 1030 30.42 859 25.37 -0.7 30.8 72 -5.1 22.8 -1.067 -0.042
08:46 1030 30.42 859 25.37 -0.6 30.9 71 -5.2 22.6 -1.062 -0.042
08:47 1030 30.42 859 25.37 -0.6 30.8 70 -5.5 22.1 -1.017 -0.04
08:48 1030 30.42 859 25.37 -0.6 31 68 -5.8 21.6 -0.949 -0.037
08:49 1030 30.42 859 25.37 -0.4 31.2 70 -5.2 22.7 -0.831 -0.033
08:50 1030 30.42 859 25.37 -0.3 31.4 69 -5.4 22.3 -0.78 -0.031
08:51 1030 30.42 859 25.37 -0.3 31.4 66 -5.8 21.5 -0.689 -0.027
08:52 1030 30.42 859 25.37 -0.3 31.5 69 -5.3 22.5 -0.645 -0.025
08:53 1030 30.42 859 25.37 -0.3 31.5 66 -5.9 21.4 -0.577 -0.023
08:54 1030 30.42 859 25.37 -0.3 31.5 67 -5.8 21.6 -0.465 -0.018
08:55 1030 30.42 859 25.37 -0.2 31.7 68 -5.4 22.3 -0.392 -0.015
08:56 1030 30.42 859 25.37 -0.1 31.8 68 -5.2 22.6 -0.227 -0.009
08:57 1030 30.42 859 25.37 -0 31.9 66 -5.6 21.8 -0.126 -0.005
08:58 1030 30.42 859 25.37 0.1 32.1 67 -5.3 22.5 -0.195 -0.008
08:59 1030 30.42 859 25.37 0.1 32.1 67 -5.3 22.4 -0.263 -0.01
09:00 1030 30.42 859 25.37 0.1 32.2 66 -5.6 22 -0.192 -0.008
09:01 1030 30.42 859 25.37 0.1 32.2 66 -5.5 22.1 -0.203 -0.008
09:02 1030 30.42 859 25.37 0.2 32.4 65 -5.6 22 -0.101 -0.004
09:03 1030 30.42 859 25.37 0.2 32.4 63 -5.9 21.3 -0.131 -0.005
09:04 1030 30.42 859 25.37 0.2 32.4 63 -5.9 21.3 -0.126 -0.005
09:05 1030 30.42 859 25.37 0.3 32.5 65 -5.5 22.1 -0.07 -0.003
09:06 1030 30.42 859 25.37 0.4 32.7 63 -5.9 21.4 -0.026 -0.001
09:07 1030 30.42 859 25.37 0.5 32.9 65 -5.3 22.5 0.042 0.002
09:08 1030 30.42 859 25.37 0.6 33 62 -6 21.2 0.031 0.001
09:09 1030 30.42 859 25.37 0.5 33 62 -5.8 21.5 0.058 0.002
09:10 1030 30.42 859 25.37 0.5 33 63 -5.7 21.8 0.063 0.002
09:11 1030 30.42 859 25.37 0.7 33.2 64 -5.4 22.4 0.177 0.007
09:12 1030 30.42 859 25.37 0.7 33.2 62 -5.8 21.5 0.193 0.008
09:13 1030 30.42 859 25.37 0.7 33.2 61 -5.9 21.3 0.136 0.005
09:14 1030 30.42 859 25.37 0.6 33.1 61 -5.9 21.3 0.136 0.005
09:15 1030 30.42 859 25.37 0.6 33.1 61 -6 21.2 0.158 0.006
09:16 1030 30.42 859 25.37 0.7 33.2 62 -5.8 21.5 0.248 0.01
09:17 1030 30.42 859 25.37 0.9 33.6 60 -5.9 21.3 0.401 0.016
09:18 1030 30.42 859 25.37 1 33.9 61 -5.8 21.6 0.484 0.019
09:19 1030 30.42 859 25.37 1.2 34.2 60 -5.8 21.6 0.58 0.023
09:20 1030 30.42 859 25.37 1.3 34.4 59 -5.7 21.7 0.677 0.027
09:21 1030 30.42 859 25.37 1.5 34.6 60 -5.4 22.3 0.805 0.032
09:22 1030 30.42 859 25.37 1.7 35 60 -5.3 22.5 0.868 0.034
09:23 1030 30.42 859 25.37 1.8 35.3 58 -5.5 22.2 0.98 0.039
09:24 1030 30.42 859 25.37 2 35.5 57 -5.7 21.7 0.984 0.039
09:25 1030 30.42 859 25.37 1.9 35.4 58 -5.5 22.1 0.848 0.033
09:26 1030 30.42 859 25.37 1.7 35.1 59 -5.5 22.2 0.83 0.033
09:27 1030 30.42 859 25.37 1.7 35.1 57 -5.9 21.3 0.874 0.034
09:28 1030 30.42 859 25.37 1.7 35.1 57 -5.8 21.5 0.885 0.035
09:29 1030 30.42 859 25.37 1.9 35.4 57 -5.7 21.8 1.06 0.042
09:30 1030 30.42 859 25.37 2.1 35.7 57 -5.7 21.8 1.167 0.046
09:31 1030 30.42 859 25.37 2.3 36.1 56 -5.5 22 1.286 0.051
09:32 1030 30.42 859 25.37 2.5 36.5 53 -6.2 20.9 1.398 0.055
09:33 1030 30.42 859 25.37 2.8 37 55 -5.5 22.2 1.551 0.061
09:34 1030 30.42 859 25.37 3 37.5 52 -5.9 21.4 1.715 0.068
09:35 1030 30.42 859 25.37 3.1 37.5 50 -6.3 20.6 1.799 0.071
09:36 1030 30.42 859 25.37 2.8 37 53 -5.9 21.4 1.765 0.069
09:37 1030 30.42 859 25.37 2.7 36.8 53 -6 21.2 1.736 0.068
09:38 1030 30.42 859 25.37 2.6 36.7 52 -6.2 20.8 1.701 0.067
09:39 1030 30.42 859 25.37 2.5 36.6 54 -5.8 21.5 1.632 0.064
09:40 1030 30.42 859 25.37 2.6 36.6 54 -5.9 21.4 1.621 0.064
09:41 1030 30.42 859 25.37 2.6 36.7 54 -5.8 21.6 1.591 0.063
09:42 1030 30.42 859 25.37 2.7 36.9 54 -5.6 22 1.659 0.065
09:43 1030 30.42 859 25.37 2.7 36.8 54 -5.6 21.9 1.715 0.068
09:44 1030 30.42 859 25.37 2.7 36.8 56 -5.3 22.4 1.752 0.069
09:45 1030 30.42 859 25.37 2.5 36.5 59 -4.8 23.4 1.746 0.069
09:46 1030 30.42 859 25.37 2.3 36.2 56 -5.5 22.1 1.712 0.067
09:47 1030 30.42 859 25.37 2 35.6 57 -5.7 21.7 1.62 0.064
09:48 1030 30.42 859 25.37 1.9 35.3 61 -4.8 23.3 1.608 0.063
09:49 1030 30.42 859 25.37 1.9 35.4 60 -5.1 22.8 1.699 0.067
09:50 1030 30.42 859 25.37 2 35.5 59 -5.2 22.6 1.737 0.068
09:51 1030 30.42 859 25.37 1.8 35.3 57 -5.8 21.5 1.646 0.065
09:52 1030 30.42 859 25.37 1.8 35.2 60 -5.2 22.6 1.646 0.065
09:53 1030 30.42 859 25.37 1.8 35.2 60 -5.3 22.5 1.695 0.067
09:54 1030 30.42 859 25.37 1.8 35.2 58 -5.7 21.7 1.741 0.069
09:55 1030 30.42 859 25.37 1.7 35 55 -6.4 20.6 1.746 0.069
09:56 1030 30.42 859 25.37 1.6 34.9 57 -6 21.1 1.728 0.068
09:57 1030 30.42 859 25.37 1.6 34.9 59 -5.7 21.8 1.756 0.069
09:58 1030 30.42 859 25.37 1.7 35 58 -5.6 21.9 1.79 0.07
09:59 1030 30.42 859 25.37 1.7 35.1 61 -5.1 22.9 1.829 0.072
10:00 1030 30.42 859 25.37 1.8 35.2 55 -6.3 20.6 1.959 0.077
10:01 1030 30.42 859 25.37 1.7 35 58 -5.7 21.8 1.931 0.076
10:02 1030 30.42 859 25.37 1.7 35.1 60 -5.1 22.7 1.987 0.078
10:03 1030 30.42 859 25.37 1.8 35.2 58 -5.6 21.9 2.032 0.08
10:04 1030 30.42 859 25.37 1.7 35.1 58 -5.6 22 1.998 0.079
10:05 1030 30.42 859 25.37 1.8 35.2 56 -6 21.3 2.024 0.08
10:06 1030 30.42 859 25.37 1.8 35.2 54 -6.6 20.1 2.058 0.081
10:07 1030 30.42 859 25.37 1.8 35.2 55 -6.2 20.8 2.007 0.079
10:08 1030 30.42 859 25.37 1.8 35.2 54 -6.6 20.1 2.045 0.081
10:09 1030 30.42 859 25.37 1.8 35.3 56 -6.1 21 2.102 0.083
10:10 1030 30.42 859 25.37 1.9 35.4 54 -6.5 20.4 2.18 0.086
10:11 1030 30.42 859 25.37 2 35.6 53 -6.7 19.9 2.263 0.089
10:12 1030 30.42 859 25.37 2.1 35.8 53 -6.4 20.4 2.252 0.089
10:13 1030 30.42 859 25.37 2.1 35.7 53 -6.5 20.3 2.211 0.087
10:14 1029 30.39 859 25.37 1.9 35.5 53 -6.6 20 2.165 0.085
09:16 1029 30.39 859 25.37 2 35.7 54 -6.3 20.6 2.256 0.089
10:16 1029 30.39 859 25.37 2.1 35.8 55 -6.1 21 2.352 0.093
10:17 1029 30.39 859 25.37 2.2 35.9 53 -6.3 20.6 2.35 0.093
10:18 1029 30.39 859 25.37 2.2 36 56 -5.6 21.9 2.373 0.093
10:19 1029 30.39 859 25.37 2.3 36.2 55 -5.9 21.4 2.503 0.099
10:20 1029 30.39 859 25.37 2.3 36.2 52 -6.5 20.3 2.559 0.101
10:21 1029 30.39 859 25.37 2.4 36.4 53 -6.3 20.7 2.637 0.104
10:22 1029 30.39 859 25.37 2.4 36.4 52 -6.4 20.5 2.615 0.103
10:23 1029 30.39 859 25.37 2.4 36.3 53 -6.2 20.9 2.603 0.102
10:24 1029 30.39 859 25.37 2.4 36.3 54 -5.9 21.4 2.619 0.103
10:25 1029 30.39 859 25.37 2.5 36.5 53 -6.1 21 2.738 0.108
10:26 1029 30.39 859 25.37 2.6 36.8 54 -5.7 21.7 2.806 0.11
10:27 1029 30.39 858 25.34 2.7 36.8 54 -5.9 21.5 2.862 0.113
10:28 1029 30.39 858 25.34 2.7 36.9 52 -6.3 20.6 2.918 0.115
10:29 1029 30.39 858 25.34 2.6 36.7 53 -6.1 21 2.884 0.114
10:30 1029 30.39 858 25.34 2.6 36.6 52 -6.2 20.8 2.912 0.115
10:31 1029 30.39 858 25.34 2.6 36.7 52 -6.3 20.7 2.946 0.116
10:32 1029 30.39 858 25.34 2.7 36.9 52 -6.2 20.8 3.025 0.119
10:33 1029 30.39 858 25.34 2.8 37.1 52 -6.2 20.9 3.104 0.122
10:34 1029 30.39 858 25.34 2.9 37.3 52 -5.9 21.5 3.189 0.126
10:35 1029 30.39 858 25.34 3.1 37.6 51 -6.1 21 3.347 0.132
10:36 1029 30.39 858 25.34 3.4 38.1 49 -6.2 20.8 3.465 0.136
10:37 1029 30.39 858 25.34 3.5 38.3 52 -5.5 22.1 3.477 0.137
10:38 1029 30.39 858 25.34 3.6 38.5 51 -5.7 21.7 3.515 0.138
10:39 1029 30.39 858 25.34 3.7 38.6 49 -5.9 21.3 3.662 0.144
10:40 1029 30.39 858 25.34 3.8 38.8 50 -5.7 21.8 3.871 0.152
10:41 1029 30.39 858 25.34 3.9 39.1 46 -6.6 20.1 4.074 0.16
10:42 1029 30.39 858 25.34 4 39.1 47 -6.3 20.7 4.277 0.168
10:43 1029 30.39 858 25.34 4 39.2 46 -6.5 20.3 4.418 0.174
10:44 1029 30.39 858 25.34 4 39.2 46 -6.7 20 4.559 0.179
10:45 1029 30.39 858 25.34 4.3 39.7 45 -6.6 20.1 4.791 0.189
10:46 1029 30.39 858 25.34 4.3 39.8 44 -6.8 19.8 4.853 0.191
10:47 1029 30.39 858 25.34 4.1 39.4 46 -6.4 20.5 4.709 0.185
10:48 1029 30.39 858 25.34 4.2 39.6 45 -6.7 19.9 4.884 0.192
10:49 1029 30.39 858 25.34 4.2 39.5 46 -6.5 20.3 4.822 0.19
10:50 1029 30.39 858 25.34 4.2 39.6 46 -6.3 20.6 4.894 0.193
10:51 1029 30.39 858 25.34 4.4 39.9 44 -6.7 19.9 4.798 0.189
10:52 1029 30.39 858 25.34 4.4 40 45 -6.5 20.3 4.673 0.184
10:53 1029 30.39 858 25.34 4.4 40 46 -6.2 20.8 4.609 0.181
10:54 1029 30.39 858 25.34 4.3 39.7 46 -6.4 20.4 4.36 0.172
10:55 1028 30.36 858 25.34 4.1 39.5 45 -6.6 20.1 4.258 0.168
10:56 1028 30.36 858 25.34 4 39.2 47 -6.4 20.6 4.099 0.161
10:57 1028 30.36 858 25.34 3.8 38.8 47 -6.5 20.2 3.872 0.152
10:58 1028 30.36 858 25.34 3.6 38.4 48 -6.5 20.3 3.708 0.146
10:59 1028 30.36 858 25.34 3.6 38.4 47 -6.6 20.1 3.787 0.149
11:00 1028 30.36 858 25.34 3.4 38.2 48 -6.6 20.1 3.803 0.15
11:01 1028 30.36 858 25.34 3.4 38.2 47 -6.8 19.8 3.809 0.15
11:02 1028 30.36 858 25.34 3.4 38.1 49 -6.4 20.4 3.854 0.152
11:03 1028 30.36 858 25.34 3.5 38.3 49 -6.2 20.9 3.978 0.157
11:04 1028 30.36 858 25.34 3.7 38.7 49 -6 21.2 4.091 0.161
11:05 1028 30.36 857 25.31 3.8 38.8 47 -6.6 20.1 4.062 0.16
11:06 1028 30.36 857 25.31 3.7 38.7 47 -6.7 19.9 3.893 0.153
11:07 1028 30.36 857 25.31 3.6 38.6 46 -6.9 19.7 3.977 0.157
11:08 1028 30.36 857 25.31 3.8 38.8 45 -7 19.4 4.096 0.161
11:09 1028 30.36 857 25.31 3.9 39 46 -6.7 20 4.215 0.166
11:10 1028 30.36 857 25.31 4 39.1 46 -6.7 19.9 4.209 0.166
11:11 1028 30.36 857 25.31 3.9 39.1 46 -6.7 20 4.152 0.163
11:12 1028 30.36 857 25.31 3.9 39.1 46 -6.6 20.2 4.118 0.162
11:13 1028 30.36 857 25.31 3.9 39 46 -6.7 19.9 3.993 0.157
11:14 1028 30.36 857 25.31 3.8 38.9 45 -7.2 19.1 3.874 0.153
11:15 1028 30.36 857 25.31 3.8 38.9 45 -6.9 19.5 3.92 0.154
11:16 1028 30.36 857 25.31 4 39.1 43 -7.4 18.6 4.185 0.165
11:17 1028 30.36 857 25.31 4.2 39.5 43 -7.3 18.8 4.489 0.177
11:18 1028 30.36 857 25.31 4.4 39.9 41 -7.6 18.3 4.704 0.185
11:19 1028 30.36 857 25.31 4.3 39.8 44 -6.9 19.7 4.534 0.179
11:20 1028 30.36 857 25.31 4.2 39.5 46 -6.5 20.2 4.386 0.173
11:21 1028 30.36 857 25.31 4.1 39.3 44 -7.2 19 4.262 0.168
11:22 1028 30.36 857 25.31 4 39.2 43 -7.4 18.7 4.153 0.164
11:23 1028 30.36 857 25.31 3.9 39.1 43 -7.5 18.5 4.108 0.162
11:24 1028 30.36 857 25.31 4 39.3 45 -6.9 19.6 4.334 0.171
11:25 1028 30.36 857 25.31 4.3 39.7 44 -6.9 19.5 4.611 0.182
11:26 1028 30.36 857 25.31 4.4 39.9 45 -6.4 20.5 4.667 0.184
11:27 1028 30.36 857 25.31 4.4 39.9 45 -6.5 20.4 4.616 0.182
11:28 1028 30.36 857 25.31 4.3 39.8 46 -6.4 20.4 4.547 0.179
11:29 1028 30.36 857 25.31 4.3 39.7 44 -7 19.4 4.489 0.177
11:30 1028 30.36 857 25.31 4.2 39.5 45 -6.7 20 4.484 0.177
11:31 1028 30.36 857 25.31 4.2 39.5 44 -7 19.3 4.499 0.177
11:32 1028 30.36 857 25.31 4.2 39.5 45 -6.6 20.1 4.623 0.182
11:33 1028 30.36 857 25.31 4.3 39.8 46 -6.2 20.8 4.702 0.185
11:34 1028 30.36 857 25.31 4.4 40 43 -7 19.4 4.729 0.186
11:35 1028 30.36 857 25.31 4.4 40 44 -6.8 19.7 4.684 0.184
11:36 1028 30.36 857 25.31 4.4 40 43 -6.9 19.5 4.729 0.186
11:37 1028 30.36 857 25.31 4.5 40.1 46 -6.2 20.8 4.621 0.182
11:38 1028 30.36 857 25.31 4.5 40.1 45 -6.5 20.3 4.632 0.182
11:39 1028 30.36 857 25.31 4.5 40.1 47 -5.9 21.4 4.626 0.182
11:40 1028 30.36 857 25.31 4.4 39.9 44 -6.9 19.6 4.625 0.182
11:41 1028 30.36 857 25.31 4.2 39.5 46 -6.4 20.5 4.484 0.177
11:42 1028 30.36 857 25.31 4.2 39.6 45 -6.8 19.7 4.49 0.177
11:43 1028 30.36 857 25.31 4.2 39.6 47 -6.3 20.7 4.551 0.179
11:44 1028 30.36 857 25.31 4.3 39.7 44 -6.8 19.8 4.613 0.182
11:45 1028 30.36 857 25.31 4.4 39.9 46 -6.1 21 4.557 0.179
11:46 1028 30.36 857 25.31 4.5 40.2 46 -6.1 21 4.72 0.186
11:47 1028 30.36 857 25.31 4.7 40.4 48 -5.5 22.2 4.811 0.189
11:48 1028 30.36 857 25.31 4.7 40.5 45 -6.1 21 4.907 0.193
11:49 1028 30.36 857 25.31 4.6 40.3 47 -5.8 21.6 4.867 0.192
11:50 1028 30.36 857 25.31 4.6 40.3 45 -6.3 20.7 4.935 0.194
11:51 1028 30.36 857 25.31 4.5 40.1 46 -6.2 20.9 4.855 0.191
11:52 1028 30.36 857 25.31 4.5 40.1 45 -6.5 20.4 4.849 0.191
11:53 1028 30.36 857 25.31 4.4 40 46 -6.2 20.9 4.787 0.188
11:54 1028 30.36 857 25.31 4.5 40.1 45 -6.5 20.4 4.747 0.187
11:55 1028 30.36 857 25.31 4.5 40.1 46 -6.2 20.9 4.736 0.186
11:56 1028 30.36 857 25.31 4.4 40 44 -6.8 19.7 4.764 0.188
11:57 1028 30.36 857 25.31 4.4 39.9 47 -6 21.3 4.708 0.185
11:58 1028 30.36 857 25.31 4.4 39.9 46 -6.4 20.6 4.719 0.186
11:59 1028 30.36 857 25.31 4.5 40.1 47 -5.8 21.5 4.719 0.186
12:00 1028 30.36 857 25.31 4.6 40.2 45 -6.3 20.6 4.781 0.188
12:01 1028 30.36 857 25.31 4.6 40.3 45 -6.4 20.4 4.786 0.188
12:02 1028 30.36 857 25.31 4.7 40.5 44 -6.5 20.3 4.922 0.194
12:03 1028 30.36 857 25.31 4.9 40.7 43 -6.8 19.8 5.092 0.2
12:04 1028 30.36 857 25.31 4.8 40.7 44 -6.5 20.3 5.12 0.202
12:05 1028 30.36 857 25.31 4.8 40.6 44 -6.3 20.6 5.046 0.199
12:06 1028 30.36 857 25.31 4.9 40.7 46 -5.9 21.4 5.148 0.203
12:07 1028 30.36 857 25.31 5 41.1 44 -6.1 21.1 5.301 0.209
12:08 1028 30.36 857 25.31 5.1 41.2 44 -6.2 20.9 5.397 0.212
12:09 1028 30.36 857 25.31 5.1 41.2 43 -6.3 20.6 5.403 0.213
12:10 1028 30.36 857 25.31 5.2 41.3 42 -6.6 20.2 5.453 0.215
12:11 1028 30.36 857 25.31 5.2 41.4 41 -7 19.5 5.431 0.214
12:12 1028 30.36 857 25.31 5.2 41.3 44 -6.1 21.1 5.25 0.207
12:13 1028 30.36 857 25.31 5 41.1 45 -6 21.2 5.137 0.202
12:14 1028 30.36 857 25.31 5 40.9 42 -6.8 19.7 5.057 0.199
12:15 1027 30.33 857 25.31 4.9 40.9 44 -6.4 20.4 4.943 0.195
12:16 1027 30.33 857 25.31 4.9 40.8 43 -6.5 20.3 4.977 0.196
12:17 1027 30.33 857 25.31 5 41 43 -6.6 20 5.101 0.201
12:18 1027 30.33 857 25.31 5 41.1 45 -5.8 21.6 5.06 0.199
12:19 1027 30.33 857 25.31 5.1 41.1 44 -6.2 20.8 5.23 0.206
12:20 1027 30.33 856 25.28 5.1 41.2 43 -6.6 20.2 5.286 0.208
12:21 1027 30.33 856 25.28 5 41 46 -5.8 21.6 5.059 0.199
12:22 1027 30.33 856 25.28 5 41 44 -6.1 21 5.133 0.202
12:23 1027 30.33 856 25.28 5.1 41.1 46 -5.6 22 5.257 0.207
12:24 1027 30.33 856 25.28 5.2 41.3 46 -5.5 22 5.413 0.213
12:25 1027 30.33 856 25.28 5.2 41.3 43 -6.4 20.4 5.323 0.21
12:26 1027 30.33 856 25.28 5 41 44 -6.2 20.8 5.034 0.198
12:27 1027 30.33 856 25.28 4.8 40.6 44 -6.5 20.2 4.87 0.192
12:28 1027 30.33 856 25.28 4.6 40.3 45 -6.3 20.7 4.712 0.186
12:29 1027 30.33 856 25.28 4.6 40.2 45 -6.3 20.7 4.858 0.191
12:30 1027 30.33 856 25.28 4.7 40.5 44 -6.5 20.3 4.97 0.196
12:31 1027 30.33 856 25.28 4.9 40.9 45 -6.1 21.1 5.1 0.201
12:32 1027 30.33 856 25.28 5 41.1 43 -6.6 20.2 5.162 0.203
12:33 1027 30.33 856 25.28 5 41.1 44 -6.2 20.8 5.217 0.205
12:34 1027 30.33 856 25.28 5.1 41.2 43 -6.5 20.3 5.245 0.206
12:35 1027 30.33 856 25.28 5.2 41.4 43 -6.5 20.3 5.296 0.209
12:36 1027 30.33 856 25.28 5.3 41.5 42 -6.5 20.3 5.323 0.21
12:37 1027 30.33 856 25.28 5.2 41.4 45 -5.9 21.4 5.193 0.204
12:38 1027 30.33 856 25.28 5.2 41.4 45 -5.7 21.7 5.34 0.21
12:39 1027 30.33 856 25.28 5.2 41.4 43 -6.5 20.4 5.323 0.21
12:40 1027 30.33 856 25.28 5.2 41.3 42 -6.6 20.1 5.198 0.205
12:41 1027 30.33 856 25.28 5.2 41.3 46 -5.5 22.1 5.192 0.204
12:42 1027 30.33 856 25.28 5.2 41.4 43 -6.2 20.8 5.35 0.211
12:43 1027 30.33 856 25.28 5.3 41.5 44 -6 21.2 5.35 0.211
12:44 1027 30.33 856 25.28 5.2 41.3 42 -6.6 20.1 5.338 0.21
12:45 1027 30.33 856 25.28 5 41 43 -6.5 20.3 5.276 0.208
12:46 1027 30.33 856 25.28 5 41 45 -5.8 21.5 5.259 0.207
12:47 1027 30.33 856 25.28 5 41.1 45 -5.8 21.6 5.163 0.203
12:48 1027 30.33 856 25.28 5 41 44 -6.2 20.9 5.157 0.203
12:49 1027 30.33 856 25.28 5.1 41.1 45 -6 21.2 5.202 0.205
12:50 1027 30.33 856 25.28 5.2 41.3 42 -6.6 20.1 5.383 0.212
12:51 1027 30.33 856 25.28 5.3 41.5 43 -6.2 20.8 5.49 0.216
12:52 1027 30.33 856 25.28 5.3 41.6 43 -6.4 20.5 5.569 0.219
12:53 1027 30.33 856 25.28 5.2 41.3 44 -6.2 20.8 5.495 0.216
12:54 1027 30.33 856 25.28 5.1 41.3 44 -6.2 20.8 5.478 0.216
12:55 1027 30.33 856 25.28 5.1 41.3 46 -5.7 21.8 5.529 0.218
12:56 1027 30.33 856 25.28 5.2 41.3 41 -7 19.4 5.58 0.22
12:57 1027 30.33 856 25.28 5.3 41.5 42 -6.5 20.3 5.603 0.221
12:58 1027 30.33 856 25.28 5.4 41.7 41 -6.9 19.5 5.755 0.227
12:59 1027 30.33 856 25.28 5.4 41.7 41 -6.7 19.9 5.744 0.226
13:00 1027 30.33 856 25.28 5.3 41.5 42 -6.5 20.3 5.693 0.224
13:01 1027 30.33 856 25.28 5.2 41.4 42 -6.7 20 5.642 0.222
13:02 1027 30.33 856 25.28 5.1 41.2 42 -6.8 19.8 5.54 0.218
13:03 1027 30.33 856 25.28 5 41 44 -6.3 20.7 5.489 0.216
13:04 1027 30.33 856 25.28 5.1 41.2 43 -6.5 20.2 5.563 0.219
13:05 1027 30.33 856 25.28 5.2 41.3 43 -6.5 20.4 5.427 0.214
13:06 1027 30.33 856 25.28 5.2 41.3 43 -6.4 20.4 5.348 0.211
13:07 1027 30.33 856 25.28 5.1 41.2 42 -6.8 19.8 5.331 0.21
13:08 1027 30.33 856 25.28 5.2 41.3 43 -6.5 20.3 5.415 0.213
13:09 1027 30.33 856 25.28 5.2 41.4 43 -6.3 20.6 5.54 0.218
13:10 1027 30.33 856 25.28 5.2 41.3 44 -6.1 20.9 5.506 0.217
13:11 1027 30.33 856 25.28 5.1 41.2 43 -6.3 20.7 5.54 0.218
13:12 1027 30.33 856 25.28 5.1 41.2 44 -6.2 20.8 5.494 0.216
13:13 1027 30.33 856 25.28 5.1 41.2 43 -6.5 20.3 5.517 0.217
13:14 1027 30.33 856 25.28 5.2 41.3 44 -6.2 20.9 5.624 0.221
13:15 1027 30.33 856 25.28 5.2 41.4 43 -6.5 20.3 5.67 0.223
13:16 1027 30.33 856 25.28 5.3 41.5 43 -6.3 20.7 5.72 0.225
13:17 1027 30.33 856 25.28 5.5 41.8 41 -6.6 20 5.839 0.23
13:18 1027 30.33 856 25.28 5.6 42.1 42 -6.4 20.4 5.794 0.228
13:19 1027 30.33 856 25.28 5.8 42.4 42 -6.2 20.8 5.901 0.232
13:20 1027 30.33 856 25.28 5.9 42.6 40 -6.7 19.9 6.071 0.239
13:21 1027 30.33 856 25.28 6 42.8 39 -6.7 19.9 6.167 0.243
13:22 1027 30.33 856 25.28 6.1 43 42 -5.9 21.3 6.263 0.247
13:23 1027 30.33 856 25.28 6.3 43.3 38 -7 19.5 6.444 0.254
13:24 1027 30.33 856 25.28 6.3 43.4 40 -6.2 20.9 6.359 0.25
13:25 1027 30.33 856 25.28 6.4 43.6 39 -6.5 20.3 6.54 0.257
13:26 1027 30.33 856 25.28 6.4 43.5 40 -6.1 21.1 6.681 0.263
13:27 1027 30.33 856 25.28 6.4 43.5 40 -6.2 20.8 6.783 0.267
13:28 1027 30.33 856 25.28 6.5 43.6 41 -6 21.3 6.879 0.271
13:29 1027 30.33 856 25.28 6.6 43.8 40 -6.1 21 6.981 0.275
13:30 1027 30.33 856 25.28 6.8 44.2 41 -5.6 21.9 7.15 0.281
13:31 1027 30.33 856 25.28 7 44.7 37 -6.5 20.3 7.41 0.292
13:32 1027 30.33 856 25.28 7.2 44.9 37 -6.5 20.2 7.54 0.297
13:33 1027 30.33 856 25.28 7.2 44.9 39 -5.7 21.7 7.46 0.294
13:34 1027 30.33 856 25.28 7.1 44.7 41 -5.3 22.5 7.39 0.291
13:35 1027 30.33 856 25.28 7.2 44.9 40 -5.7 21.8 7.46 0.294
13:36 1027 30.33 856 25.28 7.2 44.9 40 -5.6 22 7.43 0.293
13:37 1027 30.33 856 25.28 7.1 44.8 37 -6.5 20.2 7.34 0.289
13:38 1027 30.33 856 25.28 7.1 44.7 41 -5.3 22.4 7.23 0.285
13:39 1027 30.33 856 25.28 7.2 45 40 -5.5 22.1 7.38 0.291
13:40 1027 30.33 856 25.28 7.3 45.2 36 -6.8 19.8 7.44 0.293
13:41 1027 30.33 856 25.28 7.3 45.2 36 -6.6 20 7.34 0.289
13:42 1027 30.33 856 25.28 7.2 45 36 -6.8 19.8 7.24 0.285
13:43 1027 30.33 856 25.28 7.1 44.8 37 -6.7 20 7.18 0.283
13:44 1026 30.3 856 25.28 7 44.7 37 -6.6 20.1 7.2 0.283
13:45 1026 30.3 856 25.28 7.1 44.7 36 -6.8 19.7 7.22 0.284
13:46 1026 30.3 856 25.28 7.1 44.7 37 -6.6 20.1 7.35 0.289
13:47 1026 30.3 856 25.28 7.1 44.8 37 -6.6 20.2 7.38 0.291
13:48 1026 30.3 856 25.28 7.2 45 40 -5.5 22 7.38 0.291
13:49 1026 30.3 856 25.28 7.3 45.2 39 -5.7 21.7 7.38 0.291
13:50 1026 30.3 856 25.28 7.3 45.2 38 -6 21.1 7.38 0.291
13:51 1026 30.3 856 25.28 7.4 45.3 37 -6.5 20.4 7.52 0.296
13:52 1026 30.3 856 25.28 7.4 45.3 37 -6.4 20.5 7.63 0.3
13:53 1026 30.3 856 25.28 7.4 45.3 36 -6.7 20 7.72 0.304
13:54 1026 30.3 855 25.25 7.4 45.2 37 -6.3 20.7 7.66 0.302
13:55 1026 30.3 855 25.25 7.3 45.1 38 -6.2 20.8 7.34 0.289
13:56 1026 30.3 855 25.25 7.1 44.8 40 -5.6 22 7.17 0.282
13:57 1026 30.3 855 25.25 7 44.7 40 -5.6 21.9 7.14 0.281
13:58 1026 30.3 855 25.25 7 44.6 37 -6.8 19.8 7.05 0.278
13:59 1026 30.3 855 25.25 6.9 44.4 37 -6.7 20 6.919 0.272
14:00 1026 30.3 855 25.25 6.9 44.4 39 -6.2 20.8 7.01 0.276
14:01 1026 30.3 855 25.25 7 44.7 38 -6.3 20.6 7.19 0.283
14:02 1026 30.3 855 25.25 7.1 44.9 38 -6.1 21 7.31 0.288
14:03 1026 30.3 855 25.25 7.1 44.8 36 -7 19.4 7.24 0.285
14:04 1026 30.3 855 25.25 6.9 44.4 37 -6.7 19.9 6.981 0.275
14:05 1026 30.3 855 25.25 6.8 44.2 37 -7 19.4 6.953 0.274
14:06 1026 30.3 855 25.25 6.7 44.1 38 -6.6 20.1 6.958 0.274
14:07 1026 30.3 855 25.25 6.8 44.3 37 -6.7 19.9 7.04 0.277
14:08 1026 30.3 855 25.25 6.9 44.4 37 -6.9 19.6 7.22 0.284
14:09 1026 30.3 855 25.25 6.9 44.4 39 -6.1 21 7.26 0.286
14:10 1026 30.3 855 25.25 6.8 44.2 37 -6.7 19.9 7.17 0.282
14:11 1026 30.3 855 25.25 6.6 43.9 38 -6.6 20.1 6.975 0.275
14:12 1026 30.3 855 25.25 6.5 43.6 39 -6.5 20.2 6.8 0.268
14:13 1026 30.3 855 25.25 6.3 43.4 39 -6.6 20.1 6.687 0.263
14:14 1026 30.3 855 25.25 6.3 43.4 39 -6.5 20.2 6.608 0.26
14:15 1026 30.3 855 25.25 6.2 43.2 39 -6.7 20 6.534 0.257
14:16 1026 30.3 855 25.25 6.3 43.3 38 -7.1 19.3 6.529 0.257
14:17 1026 30.3 855 25.25 6.3 43.3 38 -6.9 19.6 6.489 0.255
14:18 1026 30.3 855 25.25 6.3 43.3 37 -7.2 19.1 6.5 0.256
14:19 1026 30.3 855 25.25 6.3 43.4 38 -6.8 19.7 6.574 0.259
14:20 1026 30.3 855 25.25 6.4 43.6 38 -7 19.4 6.681 0.263
14:21 1026 30.3 855 25.25 6.5 43.7 37 -7.1 19.3 6.817 0.268
14:22 1026 30.3 855 25.25 6.6 43.9 38 -6.6 20.2 6.902 0.272
14:23 1026 30.3 855 25.25 6.8 44.3 36 -7.1 19.2 7.11 0.28
14:24 1026 30.3 855 25.25 6.9 44.4 38 -6.3 20.7 7.27 0.286
14:25 1026 30.3 855 25.25 6.9 44.4 36 -7.2 19.1 7.34 0.289
14:26 1026 30.3 855 25.25 6.9 44.5 39 -6.2 20.9 7.37 0.29
14:27 1026 30.3 855 25.25 7 44.5 37 -6.9 19.6 7.44 0.293
14:28 1026 30.3 855 25.25 7 44.7 37 -6.5 20.2 7.48 0.294
14:29 1026 30.3 855 25.25 7.1 44.8 37 -6.7 19.9 7.58 0.298
14:30 1026 30.3 855 25.25 7.3 45.1 36 -6.8 19.7 7.6 0.299
14:31 1026 30.3 855 25.25 7.3 45.1 35 -7 19.4 7.5 0.295
14:32 1026 30.3 855 25.25 7.1 44.8 35 -7.3 18.9 7.18 0.283
14:33 1026 30.3 855 25.25 6.9 44.4 36 -7 19.3 6.998 0.276
14:34 1026 30.3 855 25.25 6.8 44.3 37 -6.8 19.7 6.958 0.274
14:35 1026 30.3 855 25.25 6.9 44.4 36 -7 19.4 7.05 0.278
14:36 1026 30.3 855 25.25 7 44.5 39 -6.1 21 7.13 0.281
14:37 1025 30.27 855 25.25 7 44.7 35 -7.3 18.9 7.22 0.284
14:38 1025 30.27 855 25.25 7.1 44.8 37 -6.6 20.2 7.23 0.285
14:39 1025 30.27 855 25.25 7.2 45 34 -7.5 18.5 7.26 0.286
14:40 1025 30.27 855 25.25 7.2 44.9 34 -7.7 18.2 7.16 0.282
14:41 1025 30.27 855 25.25 7 44.7 36 -7 19.3 7.11 0.28
14:42 1025 30.27 855 25.25 6.9 44.5 38 -6.3 20.6 7.08 0.279
14:43 1025 30.27 855 25.25 6.8 44.2 36 -7.2 19.1 7.17 0.282
14:44 1025 30.27 855 25.25 6.7 44.1 39 -6.2 20.8 7.2 0.283
14:45 1025 30.27 855 25.25 6.7 44 37 -7.2 19.1 7.18 0.283
14:46 1025 30.27 855 25.25 6.7 44 40 -6 21.2 7.08 0.279
14:47 1025 30.27 855 25.25 6.6 43.8 38 -6.8 19.7 7 0.276
14:48 1025 30.27 854 25.22 6.6 43.8 38 -6.8 19.8 6.941 0.273
14:49 1025 30.27 854 25.22 6.5 43.6 37 -7.3 18.8 6.896 0.271
14:50 1025 30.27 854 25.22 6.4 43.5 36 -7.5 18.5 6.761 0.266
14:51 1025 30.27 854 25.22 6.3 43.4 37 -7.4 18.6 6.755 0.266
14:52 1025 30.27 854 25.22 6.3 43.3 37 -7.3 18.9 6.749 0.266
14:53 1025 30.27 854 25.22 6.3 43.4 37 -7.4 18.6 6.828 0.269
14:54 1025 30.27 854 25.22 6.3 43.4 36 -7.5 18.5 6.885 0.271
14:55 1025 30.27 854 25.22 6.4 43.5 36 -7.6 18.3 6.975 0.275
14:56 1025 30.27 854 25.22 6.5 43.7 37 -7 19.4 7.08 0.279
14:57 1025 30.27 854 25.22 6.6 43.9 36 -7.4 18.7 7.17 0.282
14:58 1025 30.27 854 25.22 6.6 43.9 36 -7.4 18.8 7.21 0.284
14:59 1025 30.27 854 25.22 6.7 44.1 36 -7.2 19.1 7.3 0.287
15:00 1025 30.27 854 25.22 6.8 44.2 38 -6.6 20.1 7.25 0.285
15:01 1025 30.27 854 25.22 6.8 44.2 39 -6.3 20.7 7.17 0.282
15:02 1025 30.27 854 25.22 6.7 44.1 37 -7.1 19.3 7.06 0.278
15:03 1025 30.27 854 25.22 6.7 44 37 -7 19.5 6.975 0.275
15:04 1025 30.27 854 25.22 6.6 43.9 38 -6.7 20 6.919 0.272
15:05 1025 30.27 854 25.22 6.5 43.8 37 -7 19.4 6.851 0.27
15:06 1025 30.27 854 25.22 6.5 43.7 37 -7.1 19.2 6.777 0.267
15:07 1025 30.27 854 25.22 6.5 43.7 40 -6.3 20.7 6.749 0.266
15:08 1025 30.27 854 25.22 6.4 43.6 40 -6.2 20.9 6.715 0.264
15:09 1025 30.27 854 25.22 6.3 43.4 39 -6.7 20 6.619 0.261
15:10 1025 30.27 854 25.22 6.2 43.2 39 -6.7 19.9 6.495 0.256
15:11 1025 30.27 854 25.22 6.2 43.1 38 -7 19.3 6.455 0.254
15:12 1025 30.27 854 25.22 6.1 43.1 39 -6.7 19.9 6.438 0.253
15:13 1025 30.27 854 25.22 6.1 43 40 -6.6 20.1 6.433 0.253
15:14 1025 30.27 854 25.22 6.1 43.1 42 -5.9 21.5 6.5 0.256
15:15 1025 30.27 854 25.22 6.2 43.2 40 -6.5 20.4 6.568 0.259
15:16 1025 30.27 854 25.22 6.2 43.2 40 -6.3 20.6 6.563 0.258
15:17 1025 30.27 854 25.22 6.2 43.1 40 -6.3 20.7 6.517 0.257
15:18 1025 30.27 854 25.22 6.2 43.2 40 -6.3 20.7 6.58 0.259
15:19 1025 30.27 854 25.22 6.3 43.3 41 -5.9 21.3 6.625 0.261
15:20 1025 30.27 854 25.22 6.3 43.3 40 -6.3 20.6 6.602 0.26
15:21 1025 30.27 854 25.22 6.3 43.3 40 -6.4 20.4 6.636 0.261
15:22 1025 30.27 854 25.22 6.4 43.5 39 -6.5 20.2 6.642 0.261
15:23 1025 30.27 854 25.22 6.4 43.6 37 -7.1 19.3 6.732 0.265
15:24 1025 30.27 854 25.22 6.5 43.7 37 -7 19.4 6.777 0.267
15:25 1025 30.27 854 25.22 6.5 43.7 40 -6.1 21 6.8 0.268
15:26 1025 30.27 854 25.22 6.5 43.7 38 -6.8 19.8 6.783 0.267
15:27 1024 30.24 854 25.22 6.5 43.7 37 -7 19.4 6.766 0.266
15:28 1024 30.24 854 25.22 6.5 43.7 37 -7.2 19 6.817 0.268
15:29 1024 30.24 854 25.22 6.5 43.7 37 -7.2 19 6.811 0.268
15:30 1024 30.24 854 25.22 6.5 43.7 36 -7.4 18.7 6.806 0.268
15:31 1024 30.24 854 25.22 6.6 43.8 36 -7.6 18.4 6.8 0.268
15:32 1024 30.24 854 25.22 6.6 43.8 39 -6.4 20.5 6.885 0.271
15:33 1024 30.24 854 25.22 6.6 44 37 -7.1 19.3 6.964 0.274
15:34 1024 30.24 854 25.22 6.7 44.1 38 -6.6 20.1 7.05 0.278
15:35 1024 30.24 854 25.22 6.8 44.2 36 -7.3 18.9 7.1 0.28
15:36 1024 30.24 854 25.22 6.8 44.2 36 -7.1 19.2 7.09 0.279
15:37 1024 30.24 853 25.19 6.8 44.2 36 -7.2 19.1 7.09 0.279
15:38 1024 30.24 853 25.19 6.7 44.1 37 -7.1 19.2 7.05 0.278
15:39 1024 30.24 853 25.19 6.8 44.2 35 -7.5 18.4 7.14 0.281
15:40 1024 30.24 853 25.19 6.8 44.3 36 -7.1 19.1 7.17 0.282
15:41 1024 30.24 853 25.19 6.8 44.3 36 -7.4 18.7 7.22 0.284
15:42 1024 30.24 853 25.19 6.9 44.4 37 -6.8 19.8 7.3 0.287
15:43 1024 30.24 853 25.19 6.9 44.4 36 -7.2 19 7.33 0.289
15:44 1024 30.24 853 25.19 6.8 44.3 36 -7.2 19.1 7.35 0.289
15:45 1024 30.24 853 25.19 6.7 44.1 36 -7.2 19.1 7.35 0.289
15:46 1024 30.24 853 25.19 6.8 44.2 37 -7 19.4 7.32 0.288
15:47 1024 30.24 853 25.19 6.8 44.3 35 -7.8 18 7.42 0.292
15:48 1024 30.24 853 25.19 6.9 44.4 36 -7.1 19.3 7.46 0.294
15:49 1024 30.24 853 25.19 6.9 44.4 35 -7.6 18.3 7.49 0.295
15:50 1024 30.24 853 25.19 6.9 44.4 38 -6.4 20.5 7.48 0.294
15:51 1024 30.24 853 25.19 6.8 44.3 39 -6.1 20.9 7.42 0.292
15:52 1024 30.24 853 25.19 6.8 44.2 36 -7.1 19.2 7.39 0.291
15:53 1024 30.24 853 25.19 6.7 44.1 39 -6.3 20.6 7.29 0.287
15:54 1024 30.24 853 25.19 6.7 44 38 -6.6 20.2 7.22 0.284
15:55 1024 30.24 853 25.19 6.6 43.9 40 -6 21.3 7.17 0.282
15:56 1024 30.24 853 25.19 6.6 43.9 40 -6 21.2 7.17 0.282
15:57 1024 30.24 853 25.19 6.6 43.8 41 -5.9 21.4 7.18 0.283
15:58 1024 30.24 853 25.19 6.6 43.9 40 -6.2 20.9 7.18 0.283
15:59 1024 30.24 853 25.19 6.6 43.8 38 -6.7 19.9 7.1 0.28
16:00 1024 30.24 853 25.19 6.5 43.7 39 -6.6 20.1 7.09 0.279
16:01 1024 30.24 853 25.19 6.5 43.6 41 -5.9 21.3 7.05 0.278
16:02 1024 30.24 853 25.19 6.4 43.6 41 -5.8 21.5 6.981 0.275
16:03 1024 30.24 853 25.19 6.4 43.4 40 -6.1 21 6.913 0.272
16:04 1024 30.24 853 25.19 6.3 43.3 40 -6.5 20.4 6.811 0.268
16:05 1024 30.24 853 25.19 6.2 43.2 40 -6.4 20.4 6.732 0.265
16:06 1024 30.24 853 25.19 6.2 43.2 40 -6.3 20.6 6.71 0.264
16:07 1024 30.24 853 25.19 6.2 43.1 39 -6.6 20.1 6.647 0.262
16:08 1024 30.24 853 25.19 6.2 43.1 40 -6.4 20.4 6.63 0.261
16:09 1024 30.24 853 25.19 6.1 43.1 41 -6.2 20.8 6.568 0.259
16:10 1024 30.24 853 25.19 6.1 43 40 -6.6 20.1 6.557 0.258
16:11 1024 30.24 853 25.19 6.1 43 39 -6.8 19.8 6.517 0.257
16:12 1024 30.24 853 25.19 6.1 43 39 -6.7 19.9 6.546 0.258
16:13 1024 30.24 853 25.19 6.1 43 40 -6.4 20.5 6.519 0.257
16:14 1024 30.24 853 25.19 6.1 43 40 -6.5 20.3 6.519 0.257
16:15 1024 30.24 853 25.19 6.1 43 41 -6.1 21 6.564 0.258
16:16 1024 30.24 853 25.19 6.1 43 42 -5.9 21.5 6.605 0.26
16:17 1024 30.24 853 25.19 6.1 43 43 -5.4 22.3 6.639 0.261
16:18 1024 30.24 853 25.19 6.1 42.9 45 -5.1 22.8 6.617 0.261
16:19 1024 30.24 853 25.19 6 42.9 44 -5.4 22.3 6.579 0.259
16:20 1024 30.24 853 25.19 6 42.8 44 -5.5 22.2 6.562 0.258
16:21 1024 30.24 853 25.19 5.9 42.7 44 -5.5 22.1 6.529 0.257
16:22 1024 30.24 853 25.19 5.9 42.7 45 -5.2 22.7 6.461 0.254
16:23 1024 30.24 853 25.19 5.9 42.6 45 -5.1 22.7 6.365 0.251
16:24 1024 30.24 853 25.19 5.9 42.5 45 -5.1 22.9 6.331 0.249
16:25 1024 30.24 853 25.19 5.9 42.6 45 -5.2 22.7 6.326 0.249
16:26 1024 30.24 853 25.19 5.9 42.6 44 -5.3 22.4 6.348 0.25
16:27 1024 30.24 853 25.19 5.8 42.5 45 -5.2 22.6 6.321 0.249
16:28 1024 30.24 853 25.19 5.8 42.4 45 -5.2 22.6 6.288 0.248
16:29 1024 30.24 853 25.19 5.7 42.3 46 -5 23 6.175 0.243
16:30 1024 30.24 853 25.19 5.6 42.1 47 -4.7 23.5 6.131 0.241
16:31 1024 30.24 853 25.19 5.5 41.9 47 -4.8 23.3 6.007 0.236
16:32 1024 30.24 853 25.19 5.4 41.7 47 -5 22.9 5.871 0.231
16:33 1024 30.24 853 25.19 5.3 41.6 45 -5.6 22 5.804 0.229
16:34 1024 30.24 853 25.19 5.4 41.7 46 -5.5 22.2 5.742 0.226
16:35 1024 30.24 853 25.19 5.4 41.6 45 -5.7 21.8 5.697 0.224
16:36 1024 30.24 853 25.19 5.4 41.7 44 -6 21.3 5.692 0.224
16:37 1024 30.24 853 25.19 5.4 41.8 44 -5.8 21.5 5.715 0.225
16:38 1023 30.21 853 25.19 5.4 41.7 45 -5.5 22.1 5.704 0.225
16:39 1023 30.21 853 25.19 5.4 41.7 45 -5.7 21.8 5.71 0.225
16:40 1023 30.21 853 25.19 5.4 41.6 46 -5.4 22.2 5.642 0.222
16:41 1023 30.21 853 25.19 5.3 41.6 44 -5.9 21.4 5.654 0.223
16:42 1023 30.21 853 25.19 5.4 41.6 43 -6.2 20.8 5.654 0.223
16:43 1023 30.21 853 25.19 5.4 41.7 43 -6.2 20.8 5.711 0.225
16:44 1023 30.21 853 25.19 5.4 41.7 43 -6.2 20.8 5.728 0.226
16:45 1023 30.21 852 25.16 5.4 41.7 43 -6.2 20.8 5.677 0.224
16:46 1023 30.21 852 25.16 5.4 41.6 43 -6.1 21 5.649 0.222
16:47 1023 30.21 852 25.16 5.3 41.6 43 -6.1 21 5.615 0.221
16:48 1023 30.21 852 25.16 5.3 41.5 43 -6.2 20.9 5.548 0.218
16:49 1023 30.21 852 25.16 5.2 41.4 43 -6.3 20.6 5.48 0.216
16:50 1023 30.21 852 25.16 5.2 41.4 43 -6.4 20.5 5.519 0.217
16:51 1023 30.21 852 25.16 5.3 41.5 43 -6.4 20.4 5.559 0.219
16:52 1023 30.21 852 25.16 5.3 41.5 42 -6.7 20 5.576 0.22
16:53 1023 30.21 852 25.16 5.4 41.7 42 -6.7 20 5.633 0.222
16:54 1023 30.21 852 25.16 5.3 41.6 42 -6.6 20.1 5.69 0.224
16:55 1023 30.21 853 25.19 5.3 41.5 44 -5.9 21.4 5.639 0.222
16:56 1023 30.21 853 25.19 5.1 41.2 44 -6 21.2 5.475 0.216
16:57 1023 30.21 853 25.19 5 41 45 -6.1 21.1 5.373 0.212
16:58 1023 30.21 853 25.19 4.9 40.9 45 -6 21.2 5.333 0.21
16:59 1023 30.21 853 25.19 4.9 40.9 46 -5.6 21.8 5.283 0.208
17:00 1023 30.21 853 25.19 4.7 40.5 46 -5.9 21.3 5.09 0.2
17:01 1023 30.21 853 25.19 4.6 40.3 46 -6.1 20.9 4.972 0.196
17:02 1023 30.21 853 25.19 4.6 40.3 46 -5.9 21.3 4.938 0.194
17:03 1023 30.21 853 25.19 4.6 40.3 46 -6 21.2 4.949 0.195
17:04 1023 30.21 853 25.19 4.6 40.3 46 -6.1 21.1 4.96 0.195
17:05 1023 30.21 852 25.16 4.6 40.3 47 -5.9 21.4 4.977 0.196
17:06 1023 30.21 852 25.16 4.6 40.2 48 -5.6 22 4.966 0.196
17:07 1023 30.21 852 25.16 4.3 39.7 52 -4.7 23.6 4.774 0.188
17:08 1023 30.21 852 25.16 3.7 38.7 52 -5.1 22.7 4.242 0.167
17:09 1023 30.21 852 25.16 3.4 38.2 54 -4.9 23.1 3.847 0.151
17:10 1023 30.21 852 25.16 3.1 37.5 54 -5.4 22.3 3.462 0.136
17:11 1023 30.21 852 25.16 3.2 37.7 53 -5.6 21.9 3.479 0.137
17:12 1023 30.21 852 25.16 3.3 37.9 54 -5.1 22.9 3.56 0.14
17:13 1023 30.21 852 25.16 3.1 37.6 57 -4.6 23.6 3.452 0.136
17:14 1023 30.21 852 25.16 3.1 37.5 58 -4.4 24 3.385 0.133
17:15 1023 30.21 852 25.16 2.9 37.2 59 -4.4 24.1 3.222 0.127
17:16 1023 30.21 852 25.16 2.6 36.8 60 -4.4 24.1 2.99 0.118
17:17 1023 30.21 852 25.16 2.3 36.1 62 -4.3 24.2 2.691 0.106
17:18 1023 30.21 852 25.16 2 35.5 64 -4.2 24.4 2.359 0.093
17:19 1023 30.21 852 25.16 1.7 35.1 65 -4.2 24.4 2.132 0.084
17:20 1023 30.21 852 25.16 1.5 34.7 66 -4.2 24.4 1.907 0.075
17:21 1023 30.21 852 25.16 1.3 34.3 66 -4.3 24.3 1.693 0.067
17:22 1023 30.21 852 25.16 1.2 34.2 66 -4.4 24 1.591 0.063
17:23 1023 30.21 852 25.16 1.4 34.4 64 -4.7 23.6 1.7 0.067
17:24 1023 30.21 852 25.16 1.6 35 63 -4.6 23.7 1.893 0.075
17:25 1023 30.21 852 25.16 1.9 35.4 63 -4.5 23.9 2.175 0.086
17:26 1023 30.21 852 25.16 1.7 35.1 64 -4.4 24.2 2.006 0.079
17:27 1023 30.21 852 25.16 1.5 34.6 65 -4.5 23.9 1.792 0.071
17:28 1023 30.21 852 25.16 1.4 34.5 64 -4.6 23.7 1.69 0.067
17:29 1023 30.21 852 25.16 1.7 35 64 -4.4 24 1.895 0.075
17:30 1023 30.21 852 25.16 1.5 34.6 65 -4.3 24.2 1.651 0.065
17:31 1023 30.21 852 25.16 0.8 33.4 69 -4.3 24.3 1.035 0.041
17:32 1023 30.21 852 25.16 0.2 32.4 72 -4.3 24.3 0.617 0.024
17:33 1023 30.21 852 25.16 0.1 32.1 73 -4.2 24.4 0.396 0.016
17:34 1023 30.21 852 25.16 -0.1 31.9 73 -4.4 24.1 0.334 0.013
17:35 1023 30.21 852 25.16 -0.1 31.8 73 -4.3 24.3 0.25 0.01
17:36 1023 30.21 852 25.16 -0.3 31.5 75 -4.2 24.4 0.08 0.003
17:37 1023 30.21 852 25.16 -0.4 31.2 76 -4.2 24.4 -0.027 -0.001
17:38 1023 30.21 852 25.16 -0.5 31.2 76 -4.2 24.4 -0.066 -0.003
17:39 1023 30.21 852 25.16 -0.4 31.2 76 -4.2 24.4 -0.078 -0.003
17:40 1023 30.21 852 25.16 -0.4 31.3 75 -4.3 24.3 -0.032 -0.001
17:41 1023 30.21 852 25.16 -0.4 31.3 75 -4.2 24.4 -0.038 -0.001
17:42 1023 30.21 852 25.16 -0.3 31.4 75 -4.2 24.5 0.036 0.001
17:43 1023 30.21 852 25.16 -0.3 31.5 75 -4.1 24.6 0.058 0.002
17:44 1023 30.21 852 25.16 -0.3 31.4 76 -4.1 24.7 0.076 0.003
17:45 1023 30.21 852 25.16 -0.3 31.4 77 -4 24.9 -0.009 -0
17:46 1023 30.21 852 25.16 -0.5 31.2 77 -4 24.9 -0.02 -0.001
17:47 1023 30.21 852 25.16 -0.3 31.5 77 -3.8 25.2 0.14 0.006
17:48 1023 30.21 852 25.16 -0.1 31.9 76 -3.7 25.3 0.247 0.01
17:49 1023 30.21 852 25.16 0 32 76 -3.7 25.4 0.338 0.013
17:50 1023 30.21 852 25.16 0.1 32.1 76 -3.7 25.4 0.378 0.015
17:51 1023 30.21 852 25.16 0 32 77 -3.6 25.5 0.356 0.014
17:52 1023 30.21 852 25.16 -0.1 31.9 77 -3.6 25.6 0.283 0.011
17:53 1023 30.21 852 25.16 -0.2 31.7 78 -3.5 25.7 0.204 0.008
17:54 1023 30.21 852 25.16 -0.2 31.7 79 -3.4 25.8 0.261 0.01
17:55 1023 30.21 852 25.16 -0.1 31.8 78 -3.4 25.9 0.306 0.012
17:56 1023 30.21 852 25.16 -0.1 31.8 79 -3.4 25.9 0.284 0.011
17:57 1023 30.21 852 25.16 -0.2 31.7 78 -3.5 25.7 0.188 0.007
17:58 1023 30.21 852 25.16 -0.3 31.5 79 -3.5 25.7 0.132 0.005
17:59 1023 30.21 852 25.16 -0.3 31.4 79 -3.5 25.7 0.082 0.003
18:00 1023 30.21 852 25.16 -0.3 31.5 79 -3.5 25.7 0.116 0.005
18:01 1023 30.21 852 25.16 -0.1 31.7 79 -3.4 25.9 0.185 0.007
18:02 1023 30.21 852 25.16 -0.1 31.8 79 -3.3 26 0.231 0.009
18:03 1023 30.21 852 25.16 -0 32 78 -3.3 26 0.339 0.013
18:04 1023 30.21 852 25.16 0 32.1 78 -3.3 26 0.351 0.014
18:05 1023 30.21 852 25.16 0.1 32.1 78 -3.3 26 0.385 0.015
18:06 1022 30.18 852 25.16 0 32.1 78 -3.3 26 0.402 0.016
18:07 1023 30.21 852 25.16 -0 32 78 -3.3 26 0.335 0.013
18:08 1023 30.21 852 25.16 -0.2 31.7 79 -3.4 25.9 0.245 0.01
18:09 1023 30.21 852 25.16 -0.2 31.6 79 -3.4 25.9 0.171 0.007
18:10 1022 30.18 852 25.16 -0.3 31.5 80 -3.4 25.9 0.064 0.003
18:11 1022 30.18 852 25.16 -0.3 31.4 80 -3.4 25.9 0.093 0.004
18:12 1022 30.18 852 25.16 -0.2 31.6 79 -3.4 25.8 0.138 0.005
18:13 1022 30.18 852 25.16 -0.2 31.6 79 -3.4 25.8 0.105 0.004
18:14 1022 30.18 852 25.16 -0.2 31.6 78 -3.5 25.7 0.128 0.005
18:15 1022 30.18 852 25.16 -0.3 31.5 79 -3.5 25.7 0.105 0.004
18:16 1022 30.18 852 25.16 -0.3 31.5 79 -3.5 25.7 0.071 0.003
18:17 1022 30.18 852 25.16 -0.4 31.3 79 -3.5 25.7 -0.002 -0
18:18 1022 30.18 852 25.16 -0.4 31.2 80 -3.5 25.6 -0.098 -0.004
18:19 1022 30.18 852 25.16 -0.5 31.1 80 -3.5 25.6 -0.155 -0.006
18:20 1022 30.18 852 25.16 -0.6 30.9 80 -3.6 25.6 -0.222 -0.009
18:21 1022 30.18 852 25.16 -0.7 30.7 81 -3.6 25.5 -0.307 -0.012
18:22 1022 30.18 852 25.16 -0.8 30.6 81 -3.6 25.4 -0.392 -0.015
18:23 1022 30.18 852 25.16 -0.8 30.6 80 -3.7 25.3 -0.437 -0.017
18:24 1022 30.18 852 25.16 -0.8 30.5 80 -3.8 25.2 -0.471 -0.019
18:25 1022 30.18 852 25.16 -0.8 30.6 80 -3.8 25.1 -0.448 -0.018
18:26 1022 30.18 852 25.16 -0.8 30.6 79 -4 24.9 -0.431 -0.017
18:27 1022 30.18 852 25.16 -0.7 30.7 78 -4.1 24.7 -0.409 -0.016
18:28 1022 30.18 852 25.16 -0.6 30.8 77 -4.2 24.5 -0.335 -0.013
18:29 1022 30.18 852 25.16 -0.6 30.9 77 -4.2 24.5 -0.335 -0.013
18:30 1022 30.18 852 25.16 -0.7 30.7 77 -4.3 24.3 -0.414 -0.016
18:31 1022 30.18 852 25.16 -0.9 30.4 77 -4.4 24.1 -0.51 -0.02
18:32 1022 30.18 852 25.16 -1.1 30.1 79 -4.4 24.2 -0.714 -0.028
18:33 1022 30.18 852 25.16 -1.3 29.7 79 -4.4 24.1 -0.855 -0.034
18:34 1022 30.18 852 25.16 -1.3 29.7 80 -4.3 24.2 -0.872 -0.034
18:35 1022 30.18 852 25.16 -1.3 29.7 79 -4.4 24 -0.889 -0.035
18:36 1022 30.18 852 25.16 -1.3 29.6 79 -4.6 23.8 -0.889 -0.035
18:37 1022 30.18 852 25.16 -1.4 29.6 79 -4.6 23.7 -0.961 -0.038
18:38 1022 30.18 852 25.16 -1.4 29.4 78 -4.7 23.5 -1.074 -0.042
18:39 1022 30.18 852 25.16 -1.7 29 80 -4.7 23.6 -1.289 -0.051
18:40 1022 30.18 852 25.16 -1.8 28.8 81 -4.6 23.7 -1.402 -0.055
18:41 1022 30.18 852 25.16 -1.7 28.9 80 -4.7 23.5 -1.368 -0.054
18:42 1022 30.18 852 25.16 -1.8 28.8 80 -4.8 23.4 -1.441 -0.057
18:43 1022 30.18 852 25.16 -1.9 28.6 81 -4.8 23.4 -1.502 -0.059
18:44 1022 30.18 852 25.16 -1.9 28.5 81 -4.8 23.3 -1.553 -0.061
18:45 1022 30.18 852 25.16 -2 28.4 81 -4.9 23.2 -1.627 -0.064
18:46 1022 30.18 852 25.16 -2.1 28.3 81 -5 23.1 -1.722 -0.068
18:47 1022 30.18 852 25.16 -2.2 28 80 -5.1 22.7 -1.836 -0.072
18:48 1022 30.18 852 25.16 -2.3 27.8 80 -5.3 22.5 -1.977 -0.078
18:49 1022 30.18 852 25.16 -2.4 27.6 81 -5.3 22.5 -2.033 -0.08
18:50 1022 30.18 852 25.16 -2.5 27.5 81 -5.3 22.4 -2.09 -0.082
18:51 1022 30.18 852 25.16 -2.6 27.3 81 -5.4 22.2 -2.196 -0.086
18:52 1023 30.21 852 25.16 -2.8 27 81 -5.6 22 -2.354 -0.093
18:53 1023 30.21 852 25.16 -2.8 26.9 82 -5.5 22.1 -2.422 -0.095
18:54 1023 30.21 852 25.16 -2.8 27 81 -5.5 22.1 -2.381 -0.094
18:55 1023 30.21 852 25.16 -2.8 27 80 -5.7 21.8 -2.358 -0.093
18:56 1023 30.21 852 25.16 -3 26.6 83 -5.5 22.2 -2.619 -0.103
18:57 1023 30.21 852 25.16 -3.2 26.3 85 -5.3 22.4 -2.776 -0.109
18:58 1023 30.21 852 25.16 -2.9 26.7 83 -5.4 22.4 -2.527 -0.099
18:59 1023 30.21 852 25.16 -2.6 27.3 82 -5.3 22.5 -2.233 -0.088
19:00 1023 30.21 852 25.16 -2.2 28.1 80 -5.2 22.6 -1.864 -0.073
19:01 1023 30.21 852 25.16 -1.9 28.7 77 -5.3 22.4 -1.564 -0.062
19:02 1023 30.21 852 25.16 -1.5 29.3 75 -5.4 22.2 -1.292 -0.051
19:03 1023 30.21 852 25.16 -1.4 29.5 75 -5.2 22.6 -1.195 -0.047
19:04 1023 30.21 852 25.16 -1.4 29.5 76 -5.1 22.8 -1.099 -0.043
19:05 1023 30.21 852 25.16 -1.4 29.5 77 -5 23.1 -1.127 -0.044
19:06 1023 30.21 852 25.16 -1.5 29.4 77 -5 23 -1.149 -0.045
19:07 1023 30.21 852 25.16 -1.5 29.3 76 -5.1 22.8 -1.121 -0.044
19:08 1023 30.21 852 25.16 -1.5 29.4 76 -5.2 22.6 -1.076 -0.042
19:09 1023 30.21 852 25.16 -1.4 29.4 77 -5 23.1 -1.058 -0.042
19:10 1023 30.21 852 25.16 -1.4 29.5 78 -4.8 23.4 -1.036 -0.041
19:11 1023 30.21 852 25.16 -1.4 29.5 78 -4.8 23.3 -0.99 -0.039
19:12 1023 30.21 852 25.16 -1.3 29.6 78 -4.7 23.5 -0.911 -0.036
19:13 1023 30.21 852 25.16 -1.2 29.8 77 -4.7 23.5 -0.837 -0.033
19:14 1023 30.21 852 25.16 -1.1 30.1 76 -4.8 23.3 -0.746 -0.029
19:15 1023 30.21 852 25.16 -0.8 30.5 74 -5 23 -0.52 -0.02
19:16 1023 30.21 852 25.16 -0.6 30.9 72 -5.1 22.9 -0.35 -0.014
19:17 1023 30.21 852 25.16 -0.4 31.2 71 -5.1 22.8 -0.22 -0.009
19:18 1023 30.21 852 25.16 -0.3 31.4 70 -5.1 22.8 -0.174 -0.007
19:19 1023 30.21 852 25.16 -0.4 31.3 69 -5.4 22.3 -0.146 -0.006
19:20 1023 30.21 852 25.16 -0.7 30.8 70 -5.4 22.2 -0.372 -0.015
19:21 1023 30.21 852 25.16 -0.8 30.5 70 -5.5 22 -0.497 -0.02
19:22 1023 30.21 852 25.16 -1 30.2 70 -5.7 21.7 -0.678 -0.027
19:23 1023 30.21 852 25.16 -1.3 29.6 72 -5.7 21.8 -0.989 -0.039
19:24 1023 30.21 852 25.16 -1.5 29.3 72 -5.9 21.5 -1.165 -0.046
19:25 1023 30.21 852 25.16 -1.7 28.9 75 -5.6 21.8 -1.408 -0.055
19:26 1023 30.21 852 25.16 -1.6 29.2 74 -5.6 21.8 -1.306 -0.051
19:27 1023 30.21 852 25.16 -1.3 29.7 73 -5.6 22 -1.017 -0.04
19:28 1023 30.21 852 25.16 -0.9 30.3 71 -5.5 22.2 -0.723 -0.028
19:29 1023 30.21 852 25.16 -0.6 30.9 70 -5.4 22.3 -0.45 -0.018
19:30 1023 30.21 852 25.16 -0.3 31.5 68 -5.4 22.3 -0.167 -0.007
19:31 1023 30.21 852 25.16 0.1 32.2 66 -5.5 22.2 0.122 0.005
19:32 1023 30.21 852 25.16 0.4 32.8 63 -5.8 21.6 0.44 0.017
19:33 1023 30.21 852 25.16 -0 32 65 -5.8 21.6 0.106 0.004
19:34 1023 30.21 852 25.16 -0.6 31 67 -5.9 21.5 -0.409 -0.016
19:35 1023 30.21 852 25.16 -0.7 30.8 69 -5.6 21.9 -0.527 -0.021
19:36 1023 30.21 852 25.16 -0.3 31.5 68 -5.5 22.1 -0.187 -0.007
19:37 1023 30.21 852 25.16 -0.1 31.9 66 -5.6 21.9 0.102 0.004
19:38 1023 30.21 852 25.16 -0.2 31.6 64 -6.1 21 -0.062 -0.002
19:39 1023 30.21 852 25.16 -0.8 30.5 67 -6.1 21 -0.588 -0.023
19:40 1023 30.21 852 25.16 -1.3 29.6 69 -6.2 20.8 -1.007 -0.04
19:41 1023 30.21 852 25.16 -1.7 28.9 71 -6.3 20.7 -1.381 -0.054
19:42 1023 30.21 852 25.16 -2.1 28.2 72 -6.6 20.1 -1.72 -0.068
19:43 1023 30.21 852 25.16 -2.5 27.5 77 -6 21.1 -2.088 -0.082
19:44 1023 30.21 852 25.16 -2.6 27.4 74 -6.6 20.1 -2.212 -0.087
19:45 1023 30.21 852 25.16 -2.8 27 76 -6.4 20.5 -2.478 -0.098
19:46 1023 30.21 852 25.16 -2.8 26.9 76 -6.4 20.4 -2.473 -0.097
19:47 1023 30.21 852 25.16 -3 26.6 77 -6.4 20.5 -2.63 -0.104
19:48 1023 30.21 852 25.16 -3 26.5 78 -6.4 20.5 -2.703 -0.106
19:49 1023 30.21 852 25.16 -3 26.6 78 -6.3 20.7 -2.658 -0.105
19:50 1023 30.21 852 25.16 -2.9 26.8 78 -6.2 20.8 -2.572 -0.101
19:51 1023 30.21 852 25.16 -2.8 26.9 78 -6.2 20.8 -2.521 -0.099
19:52 1023 30.21 852 25.16 -2.9 26.8 77 -6.4 20.5 -2.577 -0.101
19:53 1023 30.21 852 25.16 -3.2 26.3 77 -6.6 20.2 -2.769 -0.109
19:54 1023 30.21 852 25.16 -3.3 26.1 80 -6.3 20.6 -2.865 -0.113
19:55 1023 30.21 852 25.16 -3.2 26.2 79 -6.3 20.6 -2.854 -0.112
19:56 1023 30.21 852 25.16 -3.2 26.3 79 -6.3 20.7 -2.779 -0.109
19:57 1023 30.21 852 25.16 -3.1 26.3 79 -6.2 20.8 -2.779 -0.109
19:58 1023 30.21 852 25.16 -3.1 26.4 79 -6.3 20.7 -2.734 -0.108
19:59 1023 30.21 852 25.16 -3 26.7 79 -6.2 20.9 -2.626 -0.103
20:00 1023 30.21 852 25.16 -2.9 26.8 78 -6.2 20.8 -2.518 -0.099
20:01 1023 30.21 852 25.16 -2.8 26.9 78 -6.2 20.8 -2.484 -0.098
20:02 1023 30.21 852 25.16 -2.9 26.7 77 -6.4 20.5 -2.529 -0.1
20:03 1023 30.21 852 25.16 -3.1 26.5 78 -6.4 20.5 -2.688 -0.106
20:04 1023 30.21 852 25.16 -3.1 26.3 79 -6.4 20.5 -2.755 -0.108
20:05 1023 30.21 852 25.16 -3.2 26.2 79 -6.4 20.5 -2.829 -0.111
20:06 1023 30.21 852 25.16 -3.3 26 79 -6.4 20.5 -2.919 -0.115
20:07 1023 30.21 852 25.16 -3.4 25.9 80 -6.4 20.4 -3.01 -0.119
20:08 1023 30.21 852 25.16 -3.5 25.7 82 -6.2 20.9 -3.1 -0.122
20:09 1023 30.21 852 25.16 -3.2 26.3 81 -6 21.1 -2.919 -0.115
20:10 1023 30.21 852 25.16 -2.9 26.9 78 -6.3 20.7 -2.743 -0.108
20:11 1023 30.21 852 25.16 -2.8 27 79 -6 21.2 -2.709 -0.107
20:12 1023 30.21 852 25.16 -2.5 27.5 76 -6.2 20.8 -2.403 -0.095
20:13 1023 30.21 852 25.16 -2.3 27.9 75 -6.2 20.8 -2.188 -0.086
20:14 1023 30.21 852 25.16 -1.9 28.6 71 -6.5 20.4 -1.831 -0.072
20:15 1023 30.21 852 25.16 -1.7 28.9 70 -6.5 20.2 -1.707 -0.067
20:16 1022 30.18 852 25.16 -1.7 29 69 -6.7 19.9 -1.65 -0.065
20:17 1022 30.18 852 25.16 -1.9 28.5 70 -6.8 19.8 -1.735 -0.068
20:18 1023 30.21 852 25.16 -2.4 27.7 72 -6.8 19.8 -2.058 -0.081
20:19 1022 30.18 852 25.16 -2.8 27 75 -6.6 20.1 -2.369 -0.093
20:20 1023 30.21 852 25.16 -3 26.6 77 -6.5 20.2 -2.584 -0.102
20:21 1022 30.18 852 25.16 -3.2 26.2 77 -6.6 20.1 -2.794 -0.11
20:22 1022 30.18 852 25.16 -3.4 25.8 78 -6.8 19.8 -2.98 -0.117
20:23 1022 30.18 852 25.16 -3.5 25.7 79 -6.6 20.1 -3.122 -0.123
20:24 1022 30.18 852 25.16 -3.5 25.6 80 -6.6 20.2 -3.15 -0.124
20:25 1022 30.18 852 25.16 -3.5 25.8 79 -6.7 20 -3.031 -0.119
20:26 1022 30.18 852 25.16 -3.5 25.8 79 -6.6 20.1 -3.094 -0.122
20:27 1022 30.18 852 25.16 -3.5 25.8 79 -6.5 20.2 -3.071 -0.121
20:28 1022 30.18 852 25.16 -3.4 25.8 79 -6.6 20.1 -3.009 -0.118
20:29 1022 30.18 852 25.16 -3.5 25.8 79 -6.7 20 -3.043 -0.12
20:30 1022 30.18 852 25.16 -3.6 25.6 79 -6.6 20.1 -3.173 -0.125
20:31 1022 30.18 852 25.16 -3.7 25.4 80 -6.6 20 -3.286 -0.129
20:32 1022 30.18 852 25.16 -3.7 25.3 81 -6.5 20.3 -3.337 -0.131
20:33 1022 30.18 852 25.16 -3.8 25.2 81 -6.5 20.2 -3.36 -0.132
20:34 1022 30.18 852 25.16 -3.8 25.2 81 -6.5 20.2 -3.36 -0.132
20:35 1022 30.18 852 25.16 -3.8 25.2 81 -6.5 20.2 -3.348 -0.132
20:36 1022 30.18 852 25.16 -3.7 25.4 81 -6.5 20.3 -3.286 -0.129
20:37 1022 30.18 852 25.16 -3.5 25.7 80 -6.5 20.3 -3.116 -0.123
20:38 1022 30.18 852 25.16 -3.3 26.1 79 -6.5 20.3 -2.98 -0.117
20:39 1022 30.18 852 25.16 -3.4 25.9 79 -6.6 20.2 -3.059 -0.12
20:40 1022 30.18 852 25.16 -3.5 25.6 80 -6.4 20.4 -3.161 -0.124
20:41 1022 30.18 852 25.16 -3.5 25.7 80 -6.4 20.4 -3.139 -0.124
20:42 1022 30.18 852 25.16 -3.5 25.7 80 -6.5 20.4 -3.121 -0.123
20:43 1022 30.18 852 25.16 -3.5 25.8 80 -6.4 20.4 -3.069 -0.121
20:44 1022 30.18 852 25.16 -3.4 25.8 80 -6.4 20.4 -3.058 -0.12
20:45 1023 30.21 852 25.16 -3.4 25.8 80 -6.4 20.5 -3.018 -0.119
20:46 1023 30.21 852 25.16 -3.4 25.9 80 -6.4 20.5 -2.961 -0.117
20:47 1023 30.21 852 25.16 -3.4 26 80 -6.3 20.6 -2.915 -0.115
20:48 1023 30.21 852 25.16 -3.3 26.1 79 -6.3 20.6 -2.876 -0.113
20:49 1023 30.21 852 25.16 -3.3 26 78 -6.6 20.2 -2.949 -0.116
20:50 1023 30.21 852 25.16 -3.4 25.8 79 -6.6 20.2 -3.045 -0.12
20:51 1023 30.21 852 25.16 -3.5 25.7 80 -6.5 20.3 -3.118 -0.123
20:52 1023 30.21 852 25.16 -3.6 25.6 80 -6.5 20.3 -3.141 -0.124
20:53 1023 30.21 852 25.16 -3.6 25.5 81 -6.5 20.4 -3.214 -0.127
20:54 1023 30.21 852 25.16 -3.7 25.4 80 -6.5 20.2 -3.282 -0.129
20:55 1023 30.21 852 25.16 -3.7 25.3 81 -6.5 20.4 -3.327 -0.131
20:56 1023 30.21 852 25.16 -3.7 25.3 82 -6.4 20.4 -3.333 -0.131
20:57 1023 30.21 852 25.16 -3.7 25.4 82 -6.3 20.6 -3.287 -0.129
20:58 1023 30.21 852 25.16 -3.6 25.6 81 -6.3 20.6 -3.219 -0.127
20:59 1022 30.18 852 25.16 -3.5 25.8 81 -6.2 20.8 -3.134 -0.123
21:00 1022 30.18 852 25.16 -3.2 26.2 79 -6.3 20.6 -2.941 -0.116
21:01 1023 30.21 852 25.16 -3 26.5 78 -6.4 20.5 -2.771 -0.109
21:02 1023 30.21 852 25.16 -3.1 26.5 78 -6.3 20.6 -2.777 -0.109
21:03 1023 30.21 852 25.16 -3 26.5 79 -6.2 20.8 -2.726 -0.107
21:04 1023 30.21 852 25.16 -2.9 26.8 78 -6.2 20.9 -2.612 -0.103
21:05 1023 30.21 852 25.16 -2.8 27 78 -6 21.1 -2.454 -0.097
21:06 1023 30.21 852 25.16 -2.6 27.2 78 -5.9 21.3 -2.322 -0.091
21:07 1023 30.21 852 25.16 -2.7 27.2 78 -6 21.2 -2.367 -0.093
21:08 1023 30.21 852 25.16 -2.8 26.9 78 -6.1 21 -2.492 -0.098
21:09 1023 30.21 852 25.16 -3 26.6 80 -6.1 21.1 -2.587 -0.102
21:10 1023 30.21 852 25.16 -3.1 26.5 80 -6.1 21 -2.655 -0.105
21:11 1023 30.21 852 25.16 -3 26.6 80 -6 21.1 -2.61 -0.103
21:12 1023 30.21 852 25.16 -2.9 26.8 79 -6.1 21.1 -2.576 -0.101
21:13 1023 30.21 852 25.16 -3 26.6 79 -6.1 21 -2.644 -0.104
21:14 1023 30.21 852 25.16 -3.2 26.3 81 -6 21.1 -2.797 -0.11
21:15 1023 30.21 852 25.16 -3.2 26.2 81 -6 21.3 -2.841 -0.112
21:16 1023 30.21 852 25.16 -3.2 26.3 81 -5.9 21.4 -2.784 -0.11
21:17 1023 30.21 852 25.16 -3.1 26.4 81 -5.9 21.5 -2.717 -0.107
21:18 1023 30.21 852 25.16 -3 26.5 81 -5.9 21.4 -2.687 -0.106
21:19 1023 30.21 852 25.16 -2.9 26.7 81 -5.8 21.6 -2.619 -0.103
21:20 1023 30.21 852 25.16 -2.8 26.9 80 -5.8 21.6 -2.517 -0.099
21:21 1023 30.21 852 25.16 -2.7 27.1 80 -5.8 21.6 -2.466 -0.097
21:22 1023 30.21 852 25.16 -2.7 27.1 79 -5.8 21.5 -2.443 -0.096
21:23 1023 30.21 852 25.16 -2.7 27.2 79 -5.8 21.6 -2.375 -0.094
21:24 1023 30.21 852 25.16 -2.7 27.2 79 -5.8 21.6 -2.324 -0.091
21:25 1023 30.21 852 25.16 -2.7 27.2 79 -5.8 21.6 -2.324 -0.091
21:26 1023 30.21 852 25.16 -2.7 27.2 79 -5.7 21.7 -2.278 -0.09
21:27 1023 30.21 852 25.16 -2.6 27.3 79 -5.7 21.7 -2.267 -0.089
21:28 1023 30.21 852 25.16 -2.5 27.5 78 -5.7 21.7 -2.176 -0.086
21:29 1023 30.21 852 25.16 -2.4 27.6 78 -5.8 21.6 -2.108 -0.083
21:30 1023 30.21 852 25.16 -2.4 27.7 78 -5.7 21.7 -2.074 -0.082
21:31 1023 30.21 852 25.16 -2.4 27.6 79 -5.7 21.8 -2.068 -0.081
21:32 1023 30.21 852 25.16 -2.4 27.7 79 -5.6 21.9 -2.028 -0.08
21:33 1023 30.21 852 25.16 -2.5 27.6 79 -5.6 21.9 -2.096 -0.083
21:34 1023 30.21 852 25.16 -2.5 27.5 79 -5.6 22 -2.102 -0.083
21:35 1023 30.21 852 25.16 -2.5 27.5 80 -5.6 22 -2.147 -0.085
21:36 1023 30.21 852 25.16 -2.5 27.4 80 -5.5 22 -2.152 -0.085
21:37 1023 30.21 852 25.16 -2.4 27.7 79 -5.6 22 -2.101 -0.083
21:38 1023 30.21 852 25.16 -2.3 27.9 78 -5.5 22.1 -1.971 -0.078
21:39 1023 30.21 852 25.16 -2.1 28.1 78 -5.6 22 -1.852 -0.073
21:40 1023 30.21 852 25.16 -2.2 28.1 78 -5.6 22 -1.852 -0.073
21:41 1023 30.21 852 25.16 -2.1 28.1 78 -5.5 22.1 -1.875 -0.074
21:42 1023 30.21 852 25.16 -2.2 28.1 78 -5.6 21.9 -1.858 -0.073
21:43 1023 30.21 852 25.16 -2.2 28 77 -5.6 21.9 -1.892 -0.074
21:44 1023 30.21 852 25.16 -2.3 27.9 78 -5.6 21.8 -1.886 -0.074
21:45 1023 30.21 852 25.16 -2.3 27.9 77 -5.7 21.7 -1.92 -0.076
21:46 1023 30.21 852 25.16 -2.2 28.1 77 -5.7 21.7 -1.88 -0.074
21:47 1023 30.21 852 25.16 -2.1 28.1 77 -5.7 21.7 -1.84 -0.072
21:48 1023 30.21 852 25.16 -2.1 28.2 75 -5.9 21.4 -1.761 -0.069
21:49 1023 30.21 852 25.16 -1.9 28.5 74 -6 21.2 -1.631 -0.064
21:50 1023 30.21 852 25.16 -1.7 28.9 73 -5.9 21.4 -1.473 -0.058
21:51 1023 30.21 852 25.16 -1.7 28.9 73 -5.9 21.5 -1.394 -0.055
21:52 1023 30.21 852 25.16 -1.7 28.9 74 -5.8 21.6 -1.371 -0.054
21:53 1023 30.21 852 25.16 -1.8 28.8 74 -5.7 21.7 -1.433 -0.056
21:54 1023 30.21 852 25.16 -1.9 28.7 75 -5.8 21.6 -1.496 -0.059
21:55 1023 30.21 852 25.16 -1.9 28.6 75 -5.7 21.7 -1.496 -0.059
21:56 1023 30.21 852 25.16 -1.9 28.6 76 -5.6 21.8 -1.518 -0.06
21:57 1023 30.21 852 25.16 -1.9 28.6 75 -5.7 21.8 -1.529 -0.06
21:58 1023 30.21 852 25.16 -1.8 28.8 74 -5.8 21.6 -1.456 -0.057
21:59 1023 30.21 852 25.16 -1.7 28.9 74 -5.7 21.7 -1.393 -0.055
22:00 1023 30.21 852 25.16 -1.7 29 73 -5.9 21.3 -1.376 -0.054
22:01 1023 30.21 852 25.16 -1.4 29.5 71 -6.1 21 -1.161 -0.046
22:02 1023 30.21 852 25.16 -1 30.3 68 -6.1 21 -0.776 -0.031
22:03 1023 30.21 852 25.16 -0.7 30.8 68 -5.9 21.3 -0.447 -0.018
22:04 1023 30.21 852 25.16 -0.4 31.3 63 -6.5 20.3 -0.192 -0.008
22:05 1023 30.21 852 25.16 0.1 32.3 64 -5.9 21.4 0.267 0.011
22:06 1023 30.21 852 25.16 -0.2 31.6 67 -5.6 21.9 0.012 0
22:07 1023 30.21 852 25.16 -0.9 30.3 71 -5.6 22 -0.594 -0.023
22:08 1023 30.21 852 25.16 -1.5 29.2 74 -5.6 21.9 -0.985 -0.039
22:09 1023 30.21 853 25.19 -1.9 28.6 76 -5.6 21.8 -1.263 -0.05
22:10 1023 30.21 853 25.19 -2 28.4 76 -5.7 21.7 -1.421 -0.056
22:11 1023 30.21 853 25.19 -1.9 28.5 75 -5.7 21.7 -1.432 -0.056
22:12 1023 30.21 853 25.19 -2 28.5 76 -5.7 21.7 -1.478 -0.058
22:13 1023 30.21 853 25.19 -2 28.4 76 -5.6 21.9 -1.54 -0.061
22:14 1023 30.21 853 25.19 -1.9 28.6 75 -5.8 21.6 -1.478 -0.058
22:15 1023 30.21 853 25.19 -1.6 29.1 74 -5.7 21.7 -1.234 -0.049
22:16 1023 30.21 853 25.19 -1.4 29.4 72 -5.8 21.5 -0.985 -0.039
22:17 1023 30.21 853 25.19 -1.2 29.9 71 -5.7 21.7 -0.86 -0.034
22:18 1023 30.21 853 25.19 -0.9 30.3 68 -6 21.1 -0.622 -0.024
22:19 1023 30.21 853 25.19 -0.4 31.2 64 -6.3 20.6 -0.18 -0.007
22:20 1023 30.21 852 25.16 0.1 32.1 64 -6 21.2 0.256 0.01
22:21 1023 30.21 852 25.16 0.2 32.3 63 -6 21.1 0.409 0.016
22:22 1023 30.21 852 25.16 0.3 32.6 61 -6.4 20.5 0.545 0.021
22:23 1023 30.21 852 25.16 0.5 32.9 63 -5.7 21.7 0.641 0.025
22:24 1023 30.21 852 25.16 0.3 32.6 64 -5.7 21.7 0.584 0.023
22:25 1023 30.21 852 25.16 0.2 32.3 65 -5.7 21.8 0.5 0.02
22:26 1023 30.21 852 25.16 0 32.1 66 -5.7 21.8 0.358 0.014
22:27 1023 30.21 852 25.16 -0 32 65 -5.9 21.3 0.318 0.013
22:28 1023 30.21 852 25.16 0.1 32.1 63 -6.2 20.8 0.414 0.016
22:29 1023 30.21 852 25.16 0.5 32.8 62 -6.1 21 0.674 0.027
22:30 1023 30.21 852 25.16 0.7 33.3 62 -5.7 21.7 0.98 0.039
22:31 1023 30.21 852 25.16 0.4 32.8 65 -5.3 22.4 0.742 0.029
22:32 1023 30.21 852 25.16 -0.1 31.9 68 -5.4 22.4 0.306 0.012
22:33 1023 30.21 852 25.16 -0.4 31.3 69 -5.4 22.2 0.04 0.002
22:34 1023 30.21 852 25.16 -0.6 31 70 -5.3 22.4 -0.154 -0.006
22:35 1023 30.21 852 25.16 -0.7 30.7 71 -5.3 22.5 -0.307 -0.012
22:36 1023 30.21 852 25.16 -0.8 30.5 72 -5.3 22.4 -0.392 -0.015
22:37 1023 30.21 852 25.16 -0.8 30.5 72 -5.2 22.6 -0.393 -0.015
22:38 1023 30.21 852 25.16 -0.8 30.6 72 -5.3 22.5 -0.427 -0.017
22:39 1023 30.21 852 25.16 -0.7 30.7 71 -5.3 22.5 -0.319 -0.013
22:40 1023 30.21 852 25.16 -0.6 30.9 70 -5.3 22.4 -0.229 -0.009
22:41 1023 30.21 852 25.16 -0.5 31.1 69 -5.4 22.3 -0.156 -0.006
22:42 1023 30.21 852 25.16 -0.4 31.3 70 -5.3 22.5 -0.003 -0
22:43 1023 30.21 852 25.16 -0.3 31.5 70 -5.2 22.7 0.025 0.001
22:44 1023 30.21 852 25.16 -0.3 31.5 69 -5.4 22.3 0.087 0.003
22:45 1023 30.21 852 25.16 -0.2 31.7 69 -5.3 22.5 0.201 0.008
22:46 1023 30.21 852 25.16 -0.2 31.6 70 -5.1 22.9 0.166 0.007
22:47 1023 30.21 852 25.16 -0.3 31.5 69 -5.2 22.6 0.075 0.003
22:48 1023 30.21 852 25.16 -0.3 31.5 69 -5.2 22.7 0.104 0.004
22:49 1023 30.21 852 25.16 -0.3 31.5 70 -5.1 22.8 0.109 0.004
22:50 1023 30.21 852 25.16 -0.3 31.4 71 -5 22.9 0.092 0.004
22:51 1023 30.21 852 25.16 -0.3 31.4 71 -4.9 23.1 0.047 0.002
22:52 1023 30.21 852 25.16 -0.4 31.3 72 -4.8 23.3 0.007 0
22:53 1023 30.21 852 25.16 -0.5 31.2 74 -4.6 23.7 -0.078 -0.003
22:54 1023 30.21 852 25.16 -0.6 30.9 74 -4.6 23.7 -0.197 -0.008
22:55 1023 30.21 852 25.16 -0.7 30.8 75 -4.5 23.8 -0.243 -0.01
22:56 1023 30.21 853 25.19 -0.7 30.7 75 -4.5 23.8 -0.305 -0.012
22:57 1023 30.21 852 25.16 -0.7 30.7 75 -4.6 23.8 -0.305 -0.012
22:58 1023 30.21 852 25.16 -0.6 30.8 75 -4.5 24 -0.282 -0.011
22:59 1023 30.21 852 25.16 -0.6 30.9 76 -4.4 24.1 -0.231 -0.009
23:00 1023 30.21 852 25.16 -0.6 30.9 76 -4.4 24.1 -0.198 -0.008
23:01 1023 30.21 852 25.16 -0.5 31.1 75 -4.3 24.2 -0.135 -0.005
23:02 1023 30.21 852 25.16 -0.5 31.1 76 -4.2 24.4 -0.09 -0.004
23:03 1023 30.21 852 25.16 -0.5 31.1 76 -4.2 24.4 -0.033 -0.001
23:04 1023 30.21 852 25.16 -0.4 31.2 76 -4.1 24.6 -0.005 -0
23:05 1023 30.21 852 25.16 -0.4 31.2 76 -4.1 24.6 -0.017 -0.001
23:06 1023 30.21 852 25.16 -0.4 31.3 77 -4 24.8 -0.005 -0
23:07 1023 30.21 852 25.16 -0.4 31.3 77 -4 24.8 0.063 0.002
23:08 1023 30.21 852 25.16 -0.3 31.4 77 -3.9 24.9 0.102 0.004
23:09 1023 30.21 852 25.16 -0.3 31.5 76 -3.9 24.9 0.13 0.005
23:10 1023 30.21 852 25.16 -0.2 31.6 76 -4 24.9 0.192 0.008
23:11 1023 30.21 852 25.16 -0.1 31.8 75 -3.9 24.9 0.293 0.012
23:12 1023 30.21 852 25.16 -0 31.9 76 -3.8 25.2 0.373 0.015
23:13 1023 30.21 852 25.16 -0 31.9 76 -3.8 25.2 0.379 0.015
23:14 1023 30.21 852 25.16 -0 31.9 76 -3.7 25.3 0.407 0.016
23:15 1023 30.21 852 25.16 0 32 77 -3.6 25.5 0.423 0.017
23:16 1023 30.21 852 25.16 0 32.1 76 -3.6 25.5 0.434 0.017
23:17 1023 30.21 852 25.16 0.1 32.1 76 -3.7 25.4 0.474 0.019
23:18 1023 30.21 852 25.16 0.1 32.2 76 -3.6 25.6 0.49 0.019
23:19 1023 30.21 852 25.16 0.1 32.2 77 -3.5 25.8 0.495 0.019
23:20 1023 30.21 852 25.16 0.1 32.1 78 -3.4 25.9 0.461 0.018
23:21 1023 30.21 853 25.19 -0 32 79 -3.3 26.1 0.432 0.017
23:22 1023 30.21 852 25.16 -0.1 31.9 79 -3.3 26.1 0.364 0.014
23:23 1023 30.21 852 25.16 -0.1 31.9 79 -3.3 26.1 0.359 0.014
23:24 1023 30.21 852 25.16 -0.1 31.8 79 -3.3 26.1 0.353 0.014
23:25 1023 30.21 853 25.19 -0.1 31.8 80 -3.2 26.2 0.324 0.013
23:26 1023 30.21 853 25.19 -0.1 31.8 80 -3.2 26.2 0.29 0.011
23:27 1023 30.21 853 25.19 -0.1 31.8 80 -3.2 26.2 0.267 0.011
23:28 1023 30.21 853 25.19 -0.1 31.8 80 -3.2 26.2 0.267 0.011
23:29 1023 30.21 853 25.19 -0.1 31.8 79 -3.3 26.1 0.324 0.013
23:30 1023 30.21 853 25.19 -0 32 79 -3.3 26.1 0.363 0.014
23:31 1023 30.21 853 25.19 0.1 32.1 79 -3.2 26.2 0.442 0.017
23:32 1023 30.21 853 25.19 0.1 32.2 79 -3.2 26.2 0.482 0.019
23:33 1023 30.21 853 25.19 0.1 32.1 79 -3.1 26.4 0.481 0.019
23:34 1023 30.21 853 25.19 0.1 32.1 80 -3 26.6 0.436 0.017
23:35 1023 30.21 853 25.19 0 32 80 -3 26.6 0.425 0.017
23:36 1023 30.21 853 25.19 0 32.1 80 -3.1 26.5 0.447 0.018
23:37 1023 30.21 853 25.19 0.1 32.1 80 -3 26.5 0.447 0.018
23:38 1023 30.21 853 25.19 0.1 32.1 80 -3 26.5 0.487 0.019
23:39 1024 30.24 853 25.19 0.1 32.2 80 -3 26.6 0.509 0.02
23:40 1024 30.24 853 25.19 0.1 32.2 79 -3.1 26.4 0.498 0.02
23:41 1024 30.24 853 25.19 0.2 32.3 78 -3.3 26.1 0.589 0.023
23:42 1024 30.24 853 25.19 0.3 32.6 77 -3.2 26.2 0.69 0.027
23:43 1024 30.24 853 25.19 0.4 32.7 77 -3.2 26.2 0.77 0.03
23:44 1023 30.21 853 25.19 0.4 32.8 77 -3 26.5 0.809 0.032
23:45 1023 30.21 853 25.19 0.4 32.8 78 -3 26.6 0.798 0.031
23:46 1023 30.21 853 25.19 0.4 32.7 79 -2.9 26.7 0.775 0.031
23:47 1023 30.21 853 25.19 0.3 32.5 79 -2.9 26.8 0.713 0.028
23:48 1023 30.21 853 25.19 0.2 32.4 80 -2.9 26.8 0.656 0.026
23:49 1023 30.21 853 25.19 0.2 32.3 80 -2.9 26.8 0.639 0.025
23:50 1023 30.21 853 25.19 0.2 32.3 79 -3 26.6 0.633 0.025
23:51 1023 30.21 853 25.19 0.2 32.4 78 -3.1 26.4 0.662 0.026
23:52 1023 30.21 853 25.19 0.3 32.6 79 -2.9 26.8 0.747 0.029
23:53 1023 30.21 853 25.19 0.3 32.6 79 -2.9 26.8 0.775 0.031
23:54 1023 30.21 853 25.19 0.4 32.7 78 -3 26.6 0.803 0.032
23:55 1023 30.21 853 25.19 0.4 32.8 78 -2.9 26.7 0.809 0.032
23:56 1023 30.21 853 25.19 0.4 32.8 79 -2.9 26.8 0.826 0.033
23:57 1023 30.21 853 25.19 0.4 32.8 79 -2.8 26.9 0.832 0.033
23:58 1024 30.24 853 25.19 0.4 32.7 79 -2.8 26.9 0.803 0.032
23:59 1024 30.24 853 25.19 0.4 32.7 79 -2.7 27.1 0.815 0.032
24:00 1024 30.24 853 25.19 0.4 32.7 80 -2.7 27.1 0.781 0.031